Wetterdaten: Dienstag, 10.08.2021
Datum Zeit Temp. Aussen Temp. o. S. Temp +5cm Feuchte Auss Luftdruck Regen Sonnenschein Regendauer Solar Windben Empfang
10.08.2021 00:00 15,0 C 13,9 C 13,4 C 96 % 1017,1 hPa 0,0 l/m 0 min 0 min 0 W/m 6,4 km/h (2 Bft) 100,00 %
10.08.2021 00:02 15,0 C 13,9 C 13,4 C 96 % 1017,1 hPa 0,0 l/m 0 min 0 min 0 W/m 0,0 km/h (0 Bft) 13,33 %
10.08.2021 00:04 15,0 C 14,4 C 13,4 C 96 % 1017,1 hPa 0,0 l/m 0 min 0 min 0 W/m 6,4 km/h (2 Bft) 82,05 %
10.08.2021 00:07 15,1 C 14,4 C 13,4 C 96 % 1017,1 hPa 0,0 l/m 0 min 3 min 0 W/m 6,4 km/h (2 Bft) 98,48 %
10.08.2021 00:08 15,1 C 14,4 C 13,4 C 96 % 1017,1 hPa 0,0 l/m 0 min 1 min 0 W/m 6,4 km/h (2 Bft) 100,00 %
10.08.2021 00:10 15,1 C 14,4 C 13,4 C 96 % 1017,1 hPa 0,0 l/m 0 min 2 min 0 W/m 9,7 km/h (2 Bft) 100,00 %
10.08.2021 00:12 15,1 C 14,4 C 13,4 C 96 % 1017,2 hPa 0,2 l/m 0 min 2 min 0 W/m 12,9 km/h (3 Bft) 100,00 %
10.08.2021 00:14 15,1 C 14,4 C 13,4 C 96 % 1017,2 hPa 0,0 l/m 0 min 2 min 0 W/m 3,2 km/h (1 Bft) 100,00 %
10.08.2021 00:16 15,1 C 14,4 C 13,4 C 96 % 1017,2 hPa 0,0 l/m 0 min 2 min 0 W/m 6,4 km/h (2 Bft) 97,87 %
10.08.2021 00:18 15,1 C 14,4 C 13,4 C 96 % 1017,2 hPa 0,0 l/m 0 min 2 min 0 W/m 6,4 km/h (2 Bft) 97,87 %
10.08.2021 00:20 15,1 C 14,4 C 13,4 C 96 % 1017,2 hPa 0,2 l/m 0 min 2 min 0 W/m 6,4 km/h (2 Bft) 100,00 %
10.08.2021 00:22 15,2 C 14,4 C 13,4 C 96 % 1017,2 hPa 0,0 l/m 0 min 2 min 0 W/m 6,4 km/h (2 Bft) 100,00 %
10.08.2021 00:24 15,2 C 14,4 C 13,4 C 96 % 1017,1 hPa 0,0 l/m 0 min 0 min 0 W/m 3,2 km/h (1 Bft) 100,00 %
10.08.2021 00:26 15,2 C 14,4 C 13,4 C 96 % 1017,1 hPa 0,0 l/m 0 min 0 min 0 W/m 6,4 km/h (2 Bft) 100,00 %
10.08.2021 00:28 15,2 C 13,9 C 13,4 C 96 % 1017,1 hPa 0,0 l/m 0 min 2 min 0 W/m 6,4 km/h (2 Bft) 100,00 %
10.08.2021 00:30 15,2 C 13,9 C 13,4 C 96 % 1017,1 hPa 0,0 l/m 0 min 2 min 0 W/m 6,4 km/h (2 Bft) 100,00 %
10.08.2021 00:32 15,1 C 13,9 C 13,4 C 96 % 1017,1 hPa 0,0 l/m 0 min 0 min 0 W/m 3,2 km/h (1 Bft) 100,00 %
10.08.2021 00:34 15,1 C 13,9 C 13,4 C 96 % 1017,1 hPa 0,0 l/m 0 min 0 min 0 W/m 3,2 km/h (1 Bft) 100,00 %
10.08.2021 00:36 15,2 C 13,9 C 13,4 C 96 % 1017,1 hPa 0,0 l/m 0 min 0 min 0 W/m 6,4 km/h (2 Bft) 100,00 %
10.08.2021 00:38 15,1 C 13,9 C 13,4 C 96 % 1017,0 hPa 0,0 l/m 0 min 0 min 0 W/m 6,4 km/h (2 Bft) 97,87 %
10.08.2021 00:40 15,2 C 13,9 C 13,4 C 97 % 1017,0 hPa 0,0 l/m 0 min 0 min 0 W/m 3,2 km/h (1 Bft) 100,00 %
10.08.2021 00:42 15,1 C 13,9 C 13,4 C 97 % 1017,0 hPa 0,0 l/m 0 min 0 min 0 W/m 3,2 km/h (1 Bft) 100,00 %
10.08.2021 00:44 15,2 C 14,4 C 13,4 C 97 % 1017,0 hPa 0,2 l/m 0 min 0 min 0 W/m 3,2 km/h (1 Bft) 100,00 %
10.08.2021 00:46 15,2 C 14,4 C 13,4 C 97 % 1016,9 hPa 0,0 l/m 0 min 0 min 0 W/m 3,2 km/h (1 Bft) 97,87 %
10.08.2021 00:48 15,2 C 14,4 C 13,4 C 97 % 1016,9 hPa 0,0 l/m 0 min 0 min 0 W/m 3,2 km/h (1 Bft) 100,00 %
10.08.2021 00:50 15,2 C 14,4 C 13,4 C 97 % 1016,9 hPa 0,0 l/m 0 min 0 min 0 W/m 3,2 km/h (1 Bft) 100,00 %
10.08.2021 00:52 15,2 C 14,4 C 13,9 C 97 % 1017,0 hPa 0,0 l/m 0 min 0 min 0 W/m 3,2 km/h (1 Bft) 97,87 %
10.08.2021 00:54 15,2 C 14,4 C 13,4 C 97 % 1017,0 hPa 0,0 l/m 0 min 0 min 0 W/m 3,2 km/h (1 Bft) 100,00 %
10.08.2021 00:56 15,2 C 13,9 C 13,4 C 97 % 1017,0 hPa 0,0 l/m 0 min 0 min 0 W/m 6,4 km/h (2 Bft) 100,00 %
10.08.2021 00:58 15,2 C 13,9 C 13,4 C 97 % 1017,0 hPa 0,0 l/m 0 min 0 min 0 W/m 6,4 km/h (2 Bft) 100,00 %
10.08.2021 01:00 15,1 C 13,9 C 13,4 C 97 % 1017,0 hPa 0,0 l/m 0 min 0 min 0 W/m 3,2 km/h (1 Bft) 100,00 %
10.08.2021 01:02 15,1 C 13,9 C 13,4 C 97 % 1017,0 hPa 0,0 l/m 0 min 0 min 0 W/m 3,2 km/h (1 Bft) 100,00 %
10.08.2021 01:04 15,1 C 13,9 C 13,4 C 97 % 1017,0 hPa 0,0 l/m 0 min 0 min 0 W/m 3,2 km/h (1 Bft) 97,87 %
10.08.2021 01:06 15,1 C 13,9 C 13,4 C 97 % 1017,0 hPa 0,0 l/m 0 min 0 min 0 W/m 3,2 km/h (1 Bft) 100,00 %
10.08.2021 01:08 15,1 C 13,9 C 13,4 C 97 % 1017,0 hPa 0,0 l/m 0 min 0 min 0 W/m 6,4 km/h (2 Bft) 100,00 %
10.08.2021 01:10 15,1 C 13,9 C 13,4 C 97 % 1017,0 hPa 0,0 l/m 0 min 0 min 0 W/m 3,2 km/h (1 Bft) 97,87 %
10.08.2021 01:12 15,1 C 13,9 C 13,4 C 97 % 1017,0 hPa 0,0 l/m 0 min 0 min 0 W/m 6,4 km/h (2 Bft) 97,83 %
10.08.2021 01:14 15,1 C 13,9 C 13,4 C 97 % 1017,0 hPa 0,0 l/m 0 min 0 min 0 W/m 6,4 km/h (2 Bft) 97,87 %
10.08.2021 01:16 15,1 C 13,9 C 13,4 C 97 % 1017,0 hPa 0,0 l/m 0 min 0 min 0 W/m 6,4 km/h (2 Bft) 95,74 %
10.08.2021 01:18 15,1 C 13,9 C 13,4 C 97 % 1017,0 hPa 0,0 l/m 0 min 0 min 0 W/m 6,4 km/h (2 Bft) 97,87 %
10.08.2021 01:20 15,1 C 13,9 C 13,4 C 97 % 1016,9 hPa 0,0 l/m 0 min 0 min 0 W/m 3,2 km/h (1 Bft) 97,87 %
10.08.2021 01:22 15,0 C 13,9 C 13,4 C 97 % 1017,0 hPa 0,0 l/m 0 min 0 min 0 W/m 3,2 km/h (1 Bft) 93,62 %
10.08.2021 01:24 15,0 C 13,9 C 13,4 C 97 % 1017,0 hPa 0,0 l/m 0 min 0 min 0 W/m 3,2 km/h (1 Bft) 95,65 %
10.08.2021 01:26 15,0 C 13,9 C 13,4 C 97 % 1016,9 hPa 0,0 l/m 0 min 0 min 0 W/m 3,2 km/h (1 Bft) 95,74 %
10.08.2021 01:28 15,0 C 13,9 C 13,4 C 97 % 1016,9 hPa 0,0 l/m 0 min 0 min 0 W/m 3,2 km/h (1 Bft) 95,74 %
10.08.2021 01:30 15,0 C 13,9 C 13,4 C 97 % 1016,9 hPa 0,0 l/m 0 min 0 min 0 W/m 6,4 km/h (2 Bft) 97,87 %
10.08.2021 01:32 15,0 C 13,9 C 13,4 C 97 % 1016,8 hPa 0,0 l/m 0 min 0 min 0 W/m 3,2 km/h (1 Bft) 95,74 %
10.08.2021 01:34 15,0 C 13,9 C 13,4 C 97 % 1016,8 hPa 0,0 l/m 0 min 0 min 0 W/m 3,2 km/h (1 Bft) 97,83 %
10.08.2021 01:36 15,0 C 13,9 C 13,4 C 97 % 1016,8 hPa 0,0 l/m 0 min 0 min 0 W/m 3,2 km/h (1 Bft) 97,87 %
10.08.2021 01:38 14,9 C 13,9 C 13,4 C 97 % 1016,8 hPa 0,0 l/m 0 min 0 min 0 W/m 6,4 km/h (2 Bft) 97,87 %
10.08.2021 01:40 14,9 C 13,9 C 13,4 C 97 % 1016,7 hPa 0,0 l/m 0 min 0 min 0 W/m 3,2 km/h (1 Bft) 93,75 %
10.08.2021 01:42 14,9 C 13,9 C 13,4 C 97 % 1016,7 hPa 0,0 l/m 0 min 0 min 0 W/m 3,2 km/h (1 Bft) 97,87 %
10.08.2021 01:44 14,9 C 13,9 C 13,4 C 97 % 1016,7 hPa 0,0 l/m 0 min 0 min 0 W/m 6,4 km/h (2 Bft) 97,87 %
10.08.2021 01:46 14,9 C 13,9 C 13,4 C 97 % 1016,7 hPa 0,0 l/m 0 min 0 min 0 W/m 6,4 km/h (2 Bft) 97,87 %
10.08.2021 01:48 14,9 C 13,9 C 13,4 C 97 % 1016,7 hPa 0,0 l/m 0 min 0 min 0 W/m 3,2 km/h (1 Bft) 97,83 %
10.08.2021 01:50 14,9 C 13,9 C 13,4 C 97 % 1016,7 hPa 0,0 l/m 0 min 0 min 0 W/m 3,2 km/h (1 Bft) 95,74 %
10.08.2021 01:52 14,8 C 13,9 C 13,4 C 97 % 1016,8 hPa 0,0 l/m 0 min 0 min 0 W/m 6,4 km/h (2 Bft) 97,87 %
10.08.2021 01:54 14,8 C 13,9 C 13,4 C 97 % 1016,7 hPa 0,0 l/m 0 min 0 min 0 W/m 6,4 km/h (2 Bft) 97,87 %
10.08.2021 01:56 14,8 C 13,9 C 13,4 C 97 % 1016,8 hPa 0,0 l/m 0 min 0 min 0 W/m 3,2 km/h (1 Bft) 97,87 %
10.08.2021 01:58 14,8 C 13,9 C 13,4 C 97 % 1016,8 hPa 0,0 l/m 0 min 0 min 0 W/m 3,2 km/h (1 Bft) 97,87 %
10.08.2021 02:00 14,8 C 13,9 C 13,4 C 97 % 1016,8 hPa 0,0 l/m 0 min 0 min 0 W/m 9,7 km/h (2 Bft) 95,65 %
10.08.2021 02:02 14,8 C 13,9 C 13,4 C 97 % 1016,7 hPa 0,0 l/m 0 min 0 min 0 W/m 3,2 km/h (1 Bft) 95,74 %
10.08.2021 02:04 14,8 C 13,9 C 13,4 C 97 % 1016,8 hPa 0,0 l/m 0 min 0 min 0 W/m 6,4 km/h (2 Bft) 97,83 %
10.08.2021 02:06 14,8 C 13,9 C 13,4 C 97 % 1016,8 hPa 0,0 l/m 0 min 0 min 0 W/m 3,2 km/h (1 Bft) 95,74 %
10.08.2021 02:08 14,8 C 13,9 C 13,4 C 97 % 1016,7 hPa 0,0 l/m 0 min 0 min 0 W/m 3,2 km/h (1 Bft) 95,74 %
10.08.2021 02:10 14,8 C 13,9 C 13,4 C 97 % 1016,7 hPa 0,0 l/m 0 min 0 min 0 W/m 3,2 km/h (1 Bft) 95,74 %
10.08.2021 02:12 14,7 C 13,9 C 13,4 C 97 % 1016,8 hPa 0,0 l/m 0 min 0 min 0 W/m 3,2 km/h (1 Bft) 93,48 %
10.08.2021 02:14 14,8 C 13,9 C 13,4 C 97 % 1016,8 hPa 0,0 l/m 0 min 0 min 0 W/m 6,4 km/h (2 Bft) 95,74 %
10.08.2021 02:16 14,7 C 13,9 C 13,4 C 97 % 1016,8 hPa 0,0 l/m 0 min 0 min 0 W/m 6,4 km/h (2 Bft) 95,74 %
10.08.2021 02:18 14,7 C 13,9 C 13,4 C 97 % 1016,8 hPa 0,0 l/m 0 min 0 min 0 W/m 3,2 km/h (1 Bft) 95,74 %
10.08.2021 02:20 14,7 C 13,9 C 13,4 C 97 % 1016,7 hPa 0,0 l/m 0 min 0 min 0 W/m 6,4 km/h (2 Bft) 97,87 %
10.08.2021 02:22 14,6 C 13,3 C 13,4 C 97 % 1016,7 hPa 0,0 l/m 0 min 0 min 0 W/m 3,2 km/h (1 Bft) 95,74 %
10.08.2021 02:24 14,6 C 13,3 C 13,4 C 97 % 1016,7 hPa 0,0 l/m 0 min 0 min 0 W/m 6,4 km/h (2 Bft) 97,83 %
10.08.2021 02:26 14,6 C 13,3 C 13,4 C 97 % 1016,7 hPa 0,0 l/m 0 min 0 min 0 W/m 3,2 km/h (1 Bft) 97,87 %
10.08.2021 02:28 14,6 C 13,3 C 13,4 C 97 % 1016,7 hPa 0,0 l/m 0 min 0 min 0 W/m 6,4 km/h (2 Bft) 97,87 %
10.08.2021 02:30 14,6 C 13,3 C 13,4 C 97 % 1016,7 hPa 0,0 l/m 0 min 0 min 0 W/m 3,2 km/h (1 Bft) 95,74 %
10.08.2021 02:32 14,6 C 13,3 C 13,4 C 97 % 1016,8 hPa 0,0 l/m 0 min 0 min 0 W/m 6,4 km/h (2 Bft) 97,87 %
10.08.2021 02:34 14,6 C 13,9 C 13,4 C 97 % 1016,7 hPa 0,0 l/m 0 min 0 min 0 W/m 3,2 km/h (1 Bft) 97,87 %
10.08.2021 02:36 14,6 C 13,3 C 12,8 C 97 % 1016,7 hPa 0,0 l/m 0 min 0 min 0 W/m 3,2 km/h (1 Bft) 97,83 %
10.08.2021 02:38 14,6 C 13,3 C 12,8 C 97 % 1016,6 hPa 0,0 l/m 0 min 0 min 0 W/m 0,0 km/h (0 Bft) 97,87 %
10.08.2021 02:40 14,6 C 13,3 C 12,8 C 97 % 1016,6 hPa 0,0 l/m 0 min 0 min 0 W/m 3,2 km/h (1 Bft) 95,74 %
10.08.2021 02:42 14,5 C 13,3 C 12,8 C 97 % 1016,6 hPa 0,0 l/m 0 min 0 min 0 W/m 9,7 km/h (2 Bft) 97,87 %
10.08.2021 02:44 14,5 C 13,3 C 12,8 C 97 % 1016,6 hPa 0,0 l/m 0 min 0 min 0 W/m 6,4 km/h (2 Bft) 97,87 %
10.08.2021 02:46 14,5 C 13,3 C 12,8 C 97 % 1016,6 hPa 0,0 l/m 0 min 0 min 0 W/m 6,4 km/h (2 Bft) 97,87 %
10.08.2021 02:48 14,5 C 13,3 C 12,8 C 97 % 1016,6 hPa 0,0 l/m 0 min 0 min 0 W/m 3,2 km/h (1 Bft) 97,83 %
10.08.2021 02:50 14,4 C 13,3 C 12,8 C 97 % 1016,6 hPa 0,0 l/m 0 min 0 min 0 W/m 3,2 km/h (1 Bft) 97,87 %
10.08.2021 02:52 14,4 C 13,3 C 12,8 C 97 % 1016,5 hPa 0,0 l/m 0 min 0 min 0 W/m 6,4 km/h (2 Bft) 95,74 %
10.08.2021 02:54 14,4 C 13,3 C 12,8 C 97 % 1016,5 hPa 0,0 l/m 0 min 0 min 0 W/m 6,4 km/h (2 Bft) 100,00 %
10.08.2021 02:56 14,4 C 13,3 C 12,8 C 97 % 1016,5 hPa 0,0 l/m 0 min 0 min 0 W/m 3,2 km/h (1 Bft) 100,00 %
10.08.2021 02:58 14,4 C 13,3 C 12,8 C 97 % 1016,5 hPa 0,0 l/m 0 min 0 min 0 W/m 6,4 km/h (2 Bft) 100,00 %
10.08.2021 03:00 14,4 C 13,3 C 12,8 C 97 % 1016,5 hPa 0,0 l/m 0 min 0 min 0 W/m 6,4 km/h (2 Bft) 97,83 %
10.08.2021 03:02 14,3 C 13,3 C 12,8 C 97 % 1016,5 hPa 0,0 l/m 0 min 0 min 0 W/m 6,4 km/h (2 Bft) 97,87 %
10.08.2021 03:04 14,3 C 13,3 C 12,8 C 97 % 1016,5 hPa 0,0 l/m 0 min 0 min 0 W/m 6,4 km/h (2 Bft) 97,87 %
10.08.2021 03:06 14,3 C 13,3 C 12,8 C 97 % 1016,5 hPa 0,0 l/m 0 min 0 min 0 W/m 3,2 km/h (1 Bft) 97,87 %
10.08.2021 03:08 14,3 C 13,3 C 12,8 C 97 % 1016,5 hPa 0,0 l/m 0 min 0 min 0 W/m 3,2 km/h (1 Bft) 95,74 %
10.08.2021 03:10 14,3 C 13,3 C 12,8 C 97 % 1016,4 hPa 0,0 l/m 0 min 0 min 0 W/m 3,2 km/h (1 Bft) 97,87 %
10.08.2021 03:12 14,2 C 13,3 C 12,8 C 97 % 1016,3 hPa 0,0 l/m 0 min 0 min 0 W/m 3,2 km/h (1 Bft) 97,83 %
10.08.2021 03:14 14,2 C 13,3 C 12,8 C 97 % 1016,3 hPa 0,0 l/m 0 min 0 min 0 W/m 0,0 km/h (0 Bft) 97,87 %
10.08.2021 03:16 14,2 C 13,3 C 12,8 C 97 % 1016,4 hPa 0,0 l/m 0 min 0 min 0 W/m 3,2 km/h (1 Bft) 95,74 %
10.08.2021 03:18 14,2 C 13,3 C 12,8 C 97 % 1016,4 hPa 0,0 l/m 0 min 0 min 0 W/m 3,2 km/h (1 Bft) 97,87 %
10.08.2021 03:20 14,2 C 13,3 C 12,8 C 97 % 1016,4 hPa 0,0 l/m 0 min 0 min 0 W/m 3,2 km/h (1 Bft) 97,87 %
10.08.2021 03:22 14,2 C 13,3 C 12,8 C 97 % 1016,4 hPa 0,0 l/m 0 min 0 min 0 W/m 6,4 km/h (2 Bft) 97,87 %
10.08.2021 03:24 14,2 C 13,3 C 12,8 C 97 % 1016,4 hPa 0,0 l/m 0 min 0 min 0 W/m 3,2 km/h (1 Bft) 97,83 %
10.08.2021 03:26 14,2 C 13,3 C 12,8 C 97 % 1016,4 hPa 0,0 l/m 0 min 0 min 0 W/m 6,4 km/h (2 Bft) 95,74 %
10.08.2021 03:28 14,2 C 13,3 C 12,8 C 97 % 1016,4 hPa 0,0 l/m 0 min 0 min 0 W/m 3,2 km/h (1 Bft) 97,87 %
10.08.2021 03:30 14,2 C 13,3 C 13,4 C 97 % 1016,4 hPa 0,0 l/m 0 min 0 min 0 W/m 3,2 km/h (1 Bft) 93,62 %
10.08.2021 03:32 14,2 C 13,3 C 12,8 C 97 % 1016,3 hPa 0,0 l/m 0 min 0 min 0 W/m 3,2 km/h (1 Bft) 100,00 %
10.08.2021 03:34 14,2 C 13,3 C 13,4 C 97 % 1016,3 hPa 0,0 l/m 0 min 0 min 0 W/m 6,4 km/h (2 Bft) 100,00 %
10.08.2021 03:36 14,2 C 13,3 C 13,4 C 97 % 1016,3 hPa 0,0 l/m 0 min 0 min 0 W/m 3,2 km/h (1 Bft) 100,00 %
10.08.2021 03:38 14,2 C 13,3 C 12,8 C 97 % 1016,2 hPa 0,0 l/m 0 min 0 min 0 W/m 6,4 km/h (2 Bft) 100,00 %
10.08.2021 03:40 14,2 C 13,3 C 13,4 C 97 % 1016,2 hPa 0,0 l/m 0 min 0 min 0 W/m 3,2 km/h (1 Bft) 97,87 %
10.08.2021 03:42 14,2 C 13,3 C 13,4 C 97 % 1016,2 hPa 0,0 l/m 0 min 0 min 0 W/m 3,2 km/h (1 Bft) 100,00 %
10.08.2021 03:44 14,2 C 13,3 C 13,4 C 97 % 1016,2 hPa 0,0 l/m 0 min 0 min 0 W/m 0,0 km/h (0 Bft) 100,00 %
10.08.2021 03:46 14,2 C 13,3 C 13,4 C 97 % 1016,1 hPa 0,0 l/m 0 min 0 min 0 W/m 0,0 km/h (0 Bft) 100,00 %
10.08.2021 03:48 14,2 C 13,3 C 12,8 C 97 % 1016,2 hPa 0,0 l/m 0 min 0 min 0 W/m 3,2 km/h (1 Bft) 100,00 %
10.08.2021 03:50 14,2 C 13,3 C 12,8 C 97 % 1016,2 hPa 0,0 l/m 0 min 0 min 0 W/m 3,2 km/h (1 Bft) 100,00 %
10.08.2021 03:52 14,2 C 13,3 C 12,8 C 97 % 1016,2 hPa 0,0 l/m 0 min 0 min 0 W/m 6,4 km/h (2 Bft) 100,00 %
10.08.2021 03:54 14,2 C 13,3 C 13,4 C 97 % 1016,2 hPa 0,0 l/m 0 min 0 min 0 W/m 6,4 km/h (2 Bft) 100,00 %
10.08.2021 03:56 14,2 C 13,3 C 13,4 C 97 % 1016,3 hPa 0,0 l/m 0 min 0 min 0 W/m 3,2 km/h (1 Bft) 100,00 %
10.08.2021 03:58 14,2 C 13,3 C 13,4 C 97 % 1016,3 hPa 0,0 l/m 0 min 0 min 0 W/m 3,2 km/h (1 Bft) 95,65 %
10.08.2021 04:00 14,2 C 13,3 C 13,4 C 97 % 1016,3 hPa 0,0 l/m 0 min 0 min 0 W/m 0,0 km/h (0 Bft) 100,00 %
10.08.2021 04:02 14,2 C 13,3 C 13,4 C 97 % 1016,3 hPa 0,0 l/m 0 min 0 min 0 W/m 3,2 km/h (1 Bft) 100,00 %
10.08.2021 04:04 14,2 C 13,3 C 13,4 C 97 % 1016,3 hPa 0,0 l/m 0 min 0 min 0 W/m 3,2 km/h (1 Bft) 97,87 %
10.08.2021 04:06 14,2 C 13,3 C 13,4 C 97 % 1016,3 hPa 0,0 l/m 0 min 0 min 0 W/m 3,2 km/h (1 Bft) 100,00 %
10.08.2021 04:08 14,2 C 13,3 C 13,4 C 97 % 1016,3 hPa 0,0 l/m 0 min 0 min 0 W/m 6,4 km/h (2 Bft) 97,87 %
10.08.2021 04:10 14,2 C 13,3 C 13,4 C 97 % 1016,3 hPa 0,0 l/m 0 min 0 min 0 W/m 6,4 km/h (2 Bft) 100,00 %
10.08.2021 04:12 14,2 C 13,3 C 13,4 C 97 % 1016,3 hPa 0,0 l/m 0 min 0 min 0 W/m 3,2 km/h (1 Bft) 100,00 %
10.08.2021 04:14 14,2 C 13,3 C 13,4 C 97 % 1016,3 hPa 0,0 l/m 0 min 0 min 0 W/m 3,2 km/h (1 Bft) 100,00 %
10.08.2021 04:16 14,2 C 13,3 C 13,4 C 97 % 1016,4 hPa 0,0 l/m 0 min 0 min 0 W/m 6,4 km/h (2 Bft) 100,00 %
10.08.2021 04:18 14,2 C 13,9 C 13,4 C 97 % 1016,4 hPa 0,0 l/m 0 min 0 min 0 W/m 3,2 km/h (1 Bft) 97,87 %
10.08.2021 04:20 14,2 C 13,9 C 13,4 C 97 % 1016,5 hPa 0,0 l/m 0 min 0 min 0 W/m 3,2 km/h (1 Bft) 97,87 %
10.08.2021 04:22 14,3 C 13,9 C 13,4 C 97 % 1016,5 hPa 0,0 l/m 0 min 0 min 0 W/m 3,2 km/h (1 Bft) 97,83 %
10.08.2021 04:24 14,4 C 13,9 C 13,4 C 97 % 1016,5 hPa 0,0 l/m 0 min 0 min 0 W/m 6,4 km/h (2 Bft) 97,87 %
10.08.2021 04:26 14,4 C 13,9 C 13,4 C 97 % 1016,6 hPa 0,0 l/m 0 min 0 min 0 W/m 0,0 km/h (0 Bft) 95,74 %
10.08.2021 04:28 14,4 C 13,9 C 13,4 C 97 % 1016,6 hPa 0,0 l/m 0 min 2 min 0 W/m 6,4 km/h (2 Bft) 97,87 %
10.08.2021 04:30 14,4 C 13,9 C 13,4 C 97 % 1016,6 hPa 0,0 l/m 0 min 2 min 0 W/m 6,4 km/h (2 Bft) 97,87 %
10.08.2021 04:32 14,4 C 13,9 C 13,4 C 97 % 1016,7 hPa 0,0 l/m 0 min 0 min 0 W/m 3,2 km/h (1 Bft) 97,87 %
10.08.2021 04:34 14,4 C 13,9 C 13,4 C 97 % 1016,7 hPa 0,0 l/m 0 min 0 min 0 W/m 3,2 km/h (1 Bft) 95,65 %
10.08.2021 04:36 14,4 C 13,9 C 13,4 C 97 % 1016,7 hPa 0,0 l/m 0 min 0 min 0 W/m 3,2 km/h (1 Bft) 97,87 %
10.08.2021 04:38 14,4 C 13,9 C 13,4 C 97 % 1016,7 hPa 0,0 l/m 0 min 0 min 0 W/m 6,4 km/h (2 Bft) 97,87 %
10.08.2021 04:40 14,4 C 13,9 C 13,4 C 97 % 1016,8 hPa 0,0 l/m 0 min 0 min 0 W/m 3,2 km/h (1 Bft) 95,74 %
10.08.2021 04:42 14,4 C 13,9 C 13,4 C 97 % 1016,8 hPa 0,0 l/m 0 min 0 min 0 W/m 3,2 km/h (1 Bft) 95,74 %
10.08.2021 04:44 14,4 C 13,9 C 13,4 C 97 % 1017,0 hPa 0,0 l/m 0 min 2 min 0 W/m 6,4 km/h (2 Bft) 97,87 %
10.08.2021 04:46 14,5 C 13,9 C 13,4 C 97 % 1017,0 hPa 0,0 l/m 0 min 2 min 0 W/m 6,4 km/h (2 Bft) 93,48 %
10.08.2021 04:48 14,5 C 13,9 C 13,4 C 97 % 1017,0 hPa 0,0 l/m 0 min 2 min 0 W/m 12,9 km/h (3 Bft) 97,87 %
10.08.2021 04:50 14,5 C 13,9 C 13,4 C 97 % 1017,1 hPa 0,0 l/m 0 min 2 min 0 W/m 12,9 km/h (3 Bft) 97,87 %
10.08.2021 04:52 14,5 C 13,9 C 13,4 C 97 % 1017,0 hPa 0,2 l/m 0 min 2 min 0 W/m 19,3 km/h (3 Bft) 97,87 %
10.08.2021 04:54 14,5 C 13,9 C 13,4 C 97 % 1017,0 hPa 0,8 l/m 0 min 2 min 0 W/m 22,5 km/h (4 Bft) 97,87 %
10.08.2021 04:56 14,6 C 13,9 C 13,4 C 97 % 1016,9 hPa 0,2 l/m 0 min 2 min 0 W/m 16,1 km/h (3 Bft) 93,62 %
10.08.2021 04:58 14,6 C 13,3 C 13,4 C 97 % 1017,1 hPa 0,0 l/m 0 min 2 min 0 W/m 19,3 km/h (3 Bft) 95,65 %
10.08.2021 05:00 14,6 C 13,3 C 13,4 C 97 % 1017,1 hPa 0,2 l/m 0 min 2 min 0 W/m 12,9 km/h (3 Bft) 93,62 %
10.08.2021 05:02 14,5 C 13,3 C 13,4 C 97 % 1017,1 hPa 0,0 l/m 0 min 2 min 0 W/m 22,5 km/h (4 Bft) 95,74 %
10.08.2021 05:04 14,5 C 13,3 C 13,4 C 97 % 1017,0 hPa 0,2 l/m 0 min 2 min 0 W/m 22,5 km/h (4 Bft) 95,74 %
10.08.2021 05:06 14,4 C 13,3 C 13,4 C 97 % 1017,0 hPa 0,0 l/m 0 min 2 min 0 W/m 6,4 km/h (2 Bft) 93,62 %
10.08.2021 05:08 14,4 C 13,3 C 13,4 C 97 % 1017,0 hPa 0,2 l/m 0 min 2 min 0 W/m 6,4 km/h (2 Bft) 95,74 %
10.08.2021 05:10 14,4 C 13,3 C 13,4 C 97 % 1016,9 hPa 0,2 l/m 0 min 2 min 0 W/m 6,4 km/h (2 Bft) 95,65 %
10.08.2021 05:12 14,4 C 13,3 C 13,4 C 97 % 1016,9 hPa 0,0 l/m 0 min 2 min 0 W/m 12,9 km/h (3 Bft) 95,74 %
10.08.2021 05:14 14,3 C 13,3 C 12,8 C 97 % 1016,8 hPa 0,2 l/m 0 min 2 min 0 W/m 6,4 km/h (2 Bft) 95,74 %
10.08.2021 05:16 14,3 C 13,3 C 13,4 C 97 % 1016,8 hPa 0,0 l/m 0 min 2 min 0 W/m 3,2 km/h (1 Bft) 91,49 %
10.08.2021 05:18 14,2 C 13,3 C 13,4 C 97 % 1016,7 hPa 0,2 l/m 0 min 2 min 0 W/m 6,4 km/h (2 Bft) 95,74 %
10.08.2021 05:20 14,2 C 13,3 C 12,8 C 97 % 1016,7 hPa 0,0 l/m 0 min 2 min 0 W/m 9,7 km/h (2 Bft) 95,74 %
10.08.2021 05:22 14,2 C 13,3 C 13,4 C 97 % 1016,8 hPa 0,0 l/m 0 min 2 min 0 W/m 12,9 km/h (3 Bft) 95,65 %
10.08.2021 05:24 14,2 C 13,3 C 13,4 C 97 % 1016,9 hPa 0,0 l/m 0 min 2 min 0 W/m 16,1 km/h (3 Bft) 95,74 %
10.08.2021 05:26 14,2 C 13,3 C 13,4 C 97 % 1016,9 hPa 0,2 l/m 0 min 2 min 0 W/m 9,7 km/h (2 Bft) 97,87 %
10.08.2021 05:28 14,2 C 13,3 C 12,8 C 97 % 1016,7 hPa 0,0 l/m 0 min 0 min 0 W/m 6,4 km/h (2 Bft) 97,87 %
10.08.2021 05:30 14,2 C 12,8 C 12,8 C 97 % 1016,7 hPa 0,0 l/m 0 min 2 min 0 W/m 3,2 km/h (1 Bft) 97,87 %
10.08.2021 05:32 14,2 C 12,8 C 12,8 C 97 % 1016,6 hPa 0,0 l/m 0 min 2 min 0 W/m 3,2 km/h (1 Bft) 95,74 %
10.08.2021 05:34 14,2 C 12,8 C 12,8 C 97 % 1016,7 hPa 0,0 l/m 0 min 2 min 0 W/m 9,7 km/h (2 Bft) 97,83 %
10.08.2021 05:36 14,2 C 12,8 C 12,8 C 97 % 1016,7 hPa 0,0 l/m 0 min 2 min 0 W/m 6,4 km/h (2 Bft) 95,74 %
10.08.2021 05:38 14,2 C 12,8 C 13,4 C 97 % 1016,7 hPa 0,2 l/m 0 min 2 min 0 W/m 9,7 km/h (2 Bft) 97,87 %
10.08.2021 05:40 14,1 C 12,8 C 12,8 C 97 % 1016,7 hPa 0,0 l/m 0 min 0 min 0 W/m 6,4 km/h (2 Bft) 97,87 %
10.08.2021 05:42 14,1 C 12,8 C 13,4 C 97 % 1016,7 hPa 0,0 l/m 0 min 0 min 0 W/m 3,2 km/h (1 Bft) 97,87 %
10.08.2021 05:44 14,1 C 12,8 C 12,8 C 97 % 1016,7 hPa 0,0 l/m 0 min 0 min 0 W/m 6,4 km/h (2 Bft) 95,74 %
10.08.2021 05:46 14,1 C 12,8 C 12,8 C 97 % 1016,7 hPa 0,0 l/m 0 min 0 min 0 W/m 3,2 km/h (1 Bft) 97,83 %
10.08.2021 05:48 14,1 C 12,8 C 12,8 C 97 % 1016,7 hPa 0,0 l/m 0 min 2 min 0 W/m 3,2 km/h (1 Bft) 97,87 %
10.08.2021 05:50 14,0 C 12,8 C 12,8 C 97 % 1016,7 hPa 0,0 l/m 0 min 2 min 0 W/m 3,2 km/h (1 Bft) 95,74 %
10.08.2021 05:52 14,0 C 12,8 C 12,8 C 97 % 1016,7 hPa 0,0 l/m 0 min 2 min 0 W/m 6,4 km/h (2 Bft) 97,87 %
10.08.2021 05:54 14,0 C 12,8 C 12,8 C 97 % 1016,5 hPa 0,0 l/m 0 min 2 min 0 W/m 6,4 km/h (2 Bft) 100,00 %
10.08.2021 05:56 14,0 C 12,8 C 12,8 C 97 % 1016,5 hPa 0,0 l/m 0 min 2 min 0 W/m 6,4 km/h (2 Bft) 100,00 %
10.08.2021 05:58 14,0 C 12,8 C 12,8 C 97 % 1016,4 hPa 0,0 l/m 0 min 2 min 0 W/m 3,2 km/h (1 Bft) 100,00 %
10.08.2021 06:00 14,0 C 12,8 C 12,8 C 97 % 1016,5 hPa 0,0 l/m 0 min 0 min 0 W/m 3,2 km/h (1 Bft) 97,87 %
10.08.2021 06:02 14,0 C 12,8 C 12,8 C 97 % 1016,5 hPa 0,0 l/m 0 min 0 min 0 W/m 6,4 km/h (2 Bft) 100,00 %
10.08.2021 06:04 14,0 C 12,8 C 12,8 C 97 % 1016,5 hPa 0,0 l/m 0 min 0 min 0 W/m 6,4 km/h (2 Bft) 100,00 %
10.08.2021 06:08 13,9 C 12,8 C 12,8 C 97 % 1016,5 hPa 0,0 l/m 0 min 0 min 0 W/m 12,9 km/h (3 Bft) 98,92 %
10.08.2021 06:10 13,9 C 12,8 C 12,8 C 97 % 1016,4 hPa 0,0 l/m 0 min 0 min 0 W/m 6,4 km/h (2 Bft) 100,00 %
10.08.2021 06:12 13,9 C 12,8 C 12,8 C 97 % 1016,3 hPa 0,0 l/m 0 min 0 min 0 W/m 6,4 km/h (2 Bft) 100,00 %
10.08.2021 06:14 13,9 C 12,8 C 12,8 C 97 % 1016,3 hPa 0,0 l/m 0 min 0 min 0 W/m 3,2 km/h (1 Bft) 100,00 %
10.08.2021 06:16 13,9 C 12,8 C 12,8 C 97 % 1016,3 hPa 0,0 l/m 0 min 0 min 0 W/m 6,4 km/h (2 Bft) 100,00 %
10.08.2021 06:18 13,8 C 12,8 C 12,8 C 97 % 1016,3 hPa 0,0 l/m 0 min 0 min 0 W/m 6,4 km/h (2 Bft) 100,00 %
10.08.2021 06:20 13,8 C 12,2 C 12,8 C 97 % 1016,4 hPa 0,0 l/m 0 min 0 min 0 W/m 3,2 km/h (1 Bft) 100,00 %
10.08.2021 06:22 13,8 C 12,8 C 12,8 C 97 % 1016,5 hPa 0,0 l/m 0 min 0 min 0 W/m 6,4 km/h (2 Bft) 97,87 %
10.08.2021 06:24 13,7 C 12,2 C 12,8 C 97 % 1016,6 hPa 0,0 l/m 0 min 0 min 0 W/m 3,2 km/h (1 Bft) 100,00 %
10.08.2021 06:26 13,7 C 12,2 C 12,8 C 96 % 1016,7 hPa 0,0 l/m 0 min 0 min 4 W/m 3,2 km/h (1 Bft) 100,00 %
10.08.2021 06:28 13,7 C 12,2 C 12,8 C 96 % 1016,7 hPa 0,0 l/m 0 min 0 min 5 W/m 3,2 km/h (1 Bft) 100,00 %
10.08.2021 06:30 13,6 C 12,2 C 12,8 C 96 % 1016,7 hPa 0,0 l/m 0 min 0 min 5 W/m 3,2 km/h (1 Bft) 100,00 %
10.08.2021 06:32 13,6 C 12,2 C 12,8 C 96 % 1016,7 hPa 0,0 l/m 0 min 0 min 6 W/m 3,2 km/h (1 Bft) 97,83 %
10.08.2021 06:34 13,6 C 12,2 C 12,8 C 96 % 1016,7 hPa 0,0 l/m 0 min 0 min 7 W/m 3,2 km/h (1 Bft) 100,00 %
10.08.2021 06:36 13,6 C 12,2 C 12,3 C 96 % 1016,7 hPa 0,0 l/m 0 min 0 min 7 W/m 3,2 km/h (1 Bft) 100,00 %
10.08.2021 06:38 13,6 C 12,2 C 12,3 C 96 % 1016,7 hPa 0,0 l/m 0 min 0 min 9 W/m 6,4 km/h (2 Bft) 97,87 %
10.08.2021 06:40 13,6 C 12,2 C 12,3 C 96 % 1016,6 hPa 0,0 l/m 0 min 0 min 11 W/m 3,2 km/h (1 Bft) 100,00 %
10.08.2021 06:42 13,6 C 12,2 C 12,3 C 96 % 1016,6 hPa 0,0 l/m 0 min 0 min 12 W/m 3,2 km/h (1 Bft) 97,87 %
10.08.2021 06:44 13,5 C 12,2 C 12,3 C 96 % 1016,7 hPa 0,0 l/m 0 min 0 min 13 W/m 0,0 km/h (0 Bft) 97,83 %
10.08.2021 06:46 13,5 C 12,2 C 12,3 C 97 % 1016,7 hPa 0,0 l/m 0 min 0 min 14 W/m 3,2 km/h (1 Bft) 100,00 %
10.08.2021 06:48 13,5 C 12,2 C 12,3 C 97 % 1016,7 hPa 0,0 l/m 0 min 0 min 17 W/m 3,2 km/h (1 Bft) 97,87 %
10.08.2021 06:50 13,5 C 12,2 C 12,3 C 97 % 1016,7 hPa 0,0 l/m 0 min 0 min 18 W/m 3,2 km/h (1 Bft) 97,87 %
10.08.2021 06:52 13,5 C 12,2 C 12,3 C 97 % 1016,7 hPa 0,0 l/m 0 min 0 min 19 W/m 3,2 km/h (1 Bft) 97,87 %
10.08.2021 06:54 13,5 C 12,2 C 12,8 C 97 % 1016,7 hPa 0,0 l/m 0 min 0 min 21 W/m 3,2 km/h (1 Bft) 95,74 %
10.08.2021 06:56 13,5 C 12,8 C 12,8 C 97 % 1016,7 hPa 0,0 l/m 0 min 0 min 23 W/m 3,2 km/h (1 Bft) 100,00 %
10.08.2021 06:58 13,5 C 12,8 C 12,8 C 97 % 1016,6 hPa 0,0 l/m 0 min 0 min 23 W/m 0,0 km/h (0 Bft) 97,87 %
10.08.2021 07:00 13,5 C 12,8 C 12,8 C 97 % 1016,7 hPa 0,0 l/m 0 min 0 min 23 W/m 3,2 km/h (1 Bft) 97,87 %
10.08.2021 07:02 13,5 C 12,8 C 12,8 C 97 % 1016,6 hPa 0,0 l/m 0 min 0 min 25 W/m 0,0 km/h (0 Bft) 93,62 %
10.08.2021 07:04 13,5 C 12,8 C 12,8 C 97 % 1016,7 hPa 0,0 l/m 0 min 0 min 26 W/m 3,2 km/h (1 Bft) 93,62 %
10.08.2021 07:06 13,5 C 12,8 C 12,8 C 97 % 1016,7 hPa 0,0 l/m 0 min 0 min 27 W/m 3,2 km/h (1 Bft) 95,74 %
10.08.2021 07:08 13,5 C 12,8 C 12,8 C 97 % 1016,7 hPa 0,0 l/m 0 min 0 min 31 W/m 3,2 km/h (1 Bft) 95,65 %
10.08.2021 07:10 13,6 C 12,8 C 12,8 C 97 % 1016,7 hPa 0,0 l/m 0 min 0 min 32 W/m 3,2 km/h (1 Bft) 95,74 %
10.08.2021 07:12 13,6 C 12,8 C 12,8 C 97 % 1016,7 hPa 0,0 l/m 0 min 0 min 32 W/m 3,2 km/h (1 Bft) 95,74 %
10.08.2021 07:14 13,6 C 12,8 C 12,8 C 97 % 1016,7 hPa 0,0 l/m 0 min 0 min 31 W/m 6,4 km/h (2 Bft) 93,62 %
10.08.2021 07:16 13,6 C 12,8 C 12,8 C 97 % 1016,7 hPa 0,0 l/m 0 min 0 min 30 W/m 3,2 km/h (1 Bft) 93,62 %
10.08.2021 07:18 13,6 C 12,8 C 12,8 C 97 % 1016,7 hPa 0,0 l/m 0 min 0 min 30 W/m 3,2 km/h (1 Bft) 95,74 %
10.08.2021 07:20 13,6 C 12,8 C 12,8 C 97 % 1016,8 hPa 0,0 l/m 0 min 0 min 32 W/m 6,4 km/h (2 Bft) 97,83 %
10.08.2021 07:22 13,6 C 12,8 C 12,8 C 97 % 1016,8 hPa 0,0 l/m 0 min 0 min 32 W/m 6,4 km/h (2 Bft) 97,87 %
10.08.2021 07:24 13,6 C 12,8 C 12,8 C 97 % 1016,7 hPa 0,0 l/m 0 min 0 min 33 W/m 3,2 km/h (1 Bft) 97,87 %
10.08.2021 07:26 13,7 C 12,8 C 12,8 C 97 % 1016,8 hPa 0,0 l/m 0 min 0 min 33 W/m 9,7 km/h (2 Bft) 97,87 %
10.08.2021 07:28 13,7 C 12,8 C 12,8 C 97 % 1016,8 hPa 0,0 l/m 0 min 0 min 35 W/m 6,4 km/h (2 Bft) 97,87 %
10.08.2021 07:30 13,8 C 12,8 C 12,8 C 97 % 1016,9 hPa 0,0 l/m 0 min 0 min 39 W/m 6,4 km/h (2 Bft) 97,87 %
10.08.2021 07:32 13,8 C 12,8 C 12,8 C 97 % 1016,8 hPa 0,0 l/m 0 min 0 min 42 W/m 6,4 km/h (2 Bft) 97,83 %
10.08.2021 07:34 13,8 C 12,8 C 12,8 C 97 % 1016,8 hPa 0,0 l/m 0 min 0 min 42 W/m 3,2 km/h (1 Bft) 97,87 %
10.08.2021 07:36 13,8 C 12,8 C 12,8 C 97 % 1016,8 hPa 0,0 l/m 0 min 0 min 39 W/m 9,7 km/h (2 Bft) 97,87 %
10.08.2021 07:38 13,9 C 12,8 C 12,8 C 97 % 1016,9 hPa 0,0 l/m 0 min 0 min 36 W/m 12,9 km/h (3 Bft) 97,87 %
10.08.2021 07:40 13,9 C 13,3 C 12,8 C 97 % 1016,9 hPa 0,0 l/m 0 min 0 min 35 W/m 12,9 km/h (3 Bft) 97,87 %
10.08.2021 07:42 13,9 C 13,3 C 12,8 C 97 % 1016,9 hPa 0,0 l/m 0 min 0 min 37 W/m 12,9 km/h (3 Bft) 97,87 %
10.08.2021 07:44 13,9 C 13,3 C 12,8 C 97 % 1016,9 hPa 0,0 l/m 0 min 0 min 37 W/m 12,9 km/h (3 Bft) 97,83 %
10.08.2021 07:46 14,0 C 13,3 C 13,4 C 97 % 1016,9 hPa 0,0 l/m 0 min 0 min 37 W/m 3,2 km/h (1 Bft) 95,74 %
10.08.2021 07:48 14,0 C 13,3 C 13,4 C 97 % 1016,9 hPa 0,0 l/m 0 min 0 min 39 W/m 6,4 km/h (2 Bft) 100,00 %
10.08.2021 07:50 14,0 C 13,3 C 13,4 C 97 % 1017,0 hPa 0,0 l/m 0 min 0 min 39 W/m 6,4 km/h (2 Bft) 100,00 %
10.08.2021 07:52 14,0 C 13,3 C 13,4 C 97 % 1017,0 hPa 0,0 l/m 0 min 0 min 40 W/m 9,7 km/h (2 Bft) 100,00 %
10.08.2021 07:54 14,1 C 13,3 C 13,4 C 97 % 1017,0 hPa 0,0 l/m 0 min 0 min 42 W/m 12,9 km/h (3 Bft) 100,00 %
10.08.2021 07:56 14,1 C 13,3 C 13,4 C 97 % 1017,0 hPa 0,0 l/m 0 min 0 min 44 W/m 12,9 km/h (3 Bft) 97,83 %
10.08.2021 07:58 14,2 C 13,3 C 13,4 C 97 % 1017,1 hPa 0,0 l/m 0 min 0 min 47 W/m 6,4 km/h (2 Bft) 97,87 %
10.08.2021 08:00 14,2 C 13,3 C 13,4 C 97 % 1017,1 hPa 0,0 l/m 0 min 0 min 49 W/m 12,9 km/h (3 Bft) 97,87 %
10.08.2021 08:02 14,2 C 13,3 C 13,4 C 97 % 1017,1 hPa 0,0 l/m 0 min 0 min 51 W/m 9,7 km/h (2 Bft) 95,74 %
10.08.2021 08:04 14,2 C 13,9 C 13,4 C 97 % 1017,1 hPa 0,0 l/m 0 min 0 min 53 W/m 16,1 km/h (3 Bft) 97,87 %
10.08.2021 08:06 14,2 C 13,9 C 13,4 C 97 % 1017,1 hPa 0,0 l/m 0 min 0 min 58 W/m 16,1 km/h (3 Bft) 98,00 %
10.08.2021 08:08 14,2 C 13,9 C 13,4 C 97 % 1017,1 hPa 0,0 l/m 0 min 0 min 65 W/m 9,7 km/h (2 Bft) 97,73 %
10.08.2021 08:10 14,2 C 13,9 C 13,4 C 97 % 1017,1 hPa 0,0 l/m 0 min 0 min 77 W/m 6,4 km/h (2 Bft) 95,74 %
10.08.2021 08:12 14,3 C 13,9 C 13,4 C 97 % 1017,0 hPa 0,0 l/m 0 min 0 min 94 W/m 6,4 km/h (2 Bft) 97,87 %
10.08.2021 08:14 14,4 C 13,9 C 13,9 C 97 % 1017,0 hPa 0,0 l/m 0 min 0 min 111 W/m 12,9 km/h (3 Bft) 97,87 %
10.08.2021 08:16 14,4 C 14,4 C 13,9 C 97 % 1017,0 hPa 0,0 l/m 0 min 0 min 127 W/m 6,4 km/h (2 Bft) 97,87 %
10.08.2021 08:18 14,5 C 14,4 C 13,9 C 97 % 1017,0 hPa 0,0 l/m 0 min 0 min 137 W/m 12,9 km/h (3 Bft) 95,65 %
10.08.2021 08:20 14,6 C 14,4 C 13,9 C 98 % 1017,0 hPa 0,0 l/m 0 min 0 min 151 W/m 12,9 km/h (3 Bft) 97,87 %
10.08.2021 08:22 14,6 C 14,4 C 13,9 C 98 % 1017,0 hPa 0,0 l/m 2 min 0 min 156 W/m 6,4 km/h (2 Bft) 97,87 %
10.08.2021 08:24 14,8 C 14,4 C 13,9 C 98 % 1017,0 hPa 0,0 l/m 0 min 0 min 143 W/m 12,9 km/h (3 Bft) 97,87 %
10.08.2021 08:26 14,8 C 14,4 C 13,9 C 98 % 1017,0 hPa 0,0 l/m 0 min 0 min 149 W/m 12,9 km/h (3 Bft) 95,74 %
10.08.2021 08:28 14,9 C 14,4 C 13,9 C 98 % 1016,9 hPa 0,0 l/m 0 min 0 min 146 W/m 6,4 km/h (2 Bft) 93,62 %
10.08.2021 08:30 14,9 C 15,0 C 14,5 C 98 % 1017,0 hPa 0,0 l/m 0 min 0 min 162 W/m 9,7 km/h (2 Bft) 97,83 %
10.08.2021 08:32 14,9 C 15,0 C 14,5 C 98 % 1016,9 hPa 0,0 l/m 0 min 0 min 132 W/m 9,7 km/h (2 Bft) 97,87 %
10.08.2021 08:34 15,0 C 15,0 C 13,9 C 98 % 1016,9 hPa 0,0 l/m 0 min 0 min 120 W/m 9,7 km/h (2 Bft) 95,74 %
10.08.2021 08:36 15,0 C 15,0 C 14,5 C 98 % 1016,9 hPa 0,0 l/m 0 min 0 min 127 W/m 9,7 km/h (2 Bft) 85,11 %
10.08.2021 08:38 15,0 C 15,0 C 14,5 C 98 % 1017,0 hPa 0,0 l/m 0 min 0 min 145 W/m 6,4 km/h (2 Bft) 97,87 %
10.08.2021 08:40 15,0 C 15,0 C 14,5 C 98 % 1017,1 hPa 0,0 l/m 0 min 0 min 165 W/m 12,9 km/h (3 Bft) 80,85 %
10.08.2021 08:42 15,1 C 15,0 C 14,5 C 98 % 1017,1 hPa 0,0 l/m 2 min 0 min 187 W/m 6,4 km/h (2 Bft) 91,30 %
10.08.2021 08:44 15,1 C 15,6 C 14,5 C 98 % 1017,2 hPa 0,0 l/m 2 min 0 min 205 W/m 12,9 km/h (3 Bft) 80,85 %
10.08.2021 08:46 15,2 C 15,6 C 14,5 C 98 % 1017,2 hPa 0,0 l/m 0 min 0 min 165 W/m 6,4 km/h (2 Bft) 76,60 %
10.08.2021 08:47 15,3 C 15,6 C 14,5 C 98 % 1017,2 hPa 0,0 l/m 0 min 0 min 152 W/m 3,2 km/h (1 Bft) 85,11 %
10.08.2021 08:50 15,4 C 15,6 C 15,0 C 98 % 1017,2 hPa 0,0 l/m 0 min 0 min 144 W/m 12,9 km/h (3 Bft) 95,74 %
10.08.2021 08:52 15,4 C 15,6 C 14,5 C 98 % 1017,2 hPa 0,0 l/m 0 min 0 min 150 W/m 9,7 km/h (2 Bft) 97,87 %
10.08.2021 08:54 15,4 C 15,6 C 15,0 C 98 % 1017,2 hPa 0,0 l/m 0 min 0 min 171 W/m 6,4 km/h (2 Bft) 95,65 %
10.08.2021 08:56 15,5 C 15,6 C 15,0 C 98 % 1017,2 hPa 0,0 l/m 0 min 0 min 192 W/m 6,4 km/h (2 Bft) 89,36 %
10.08.2021 08:58 15,5 C 17,2 C 15,0 C 98 % 1017,1 hPa 0,0 l/m 2 min 0 min 290 W/m 6,4 km/h (2 Bft) 97,87 %
10.08.2021 09:00 15,6 C 17,8 C 15,0 C 98 % 1017,1 hPa 0,0 l/m 2 min 0 min 352 W/m 9,7 km/h (2 Bft) 95,74 %
10.08.2021 09:02 15,7 C 17,2 C 15,0 C 98 % 1017,0 hPa 0,0 l/m 0 min 0 min 149 W/m 6,4 km/h (2 Bft) 91,49 %
10.08.2021 09:04 15,8 C 16,7 C 15,0 C 98 % 1017,1 hPa 0,0 l/m 0 min 0 min 129 W/m 6,4 km/h (2 Bft) 95,74 %
10.08.2021 09:06 15,8 C 16,7 C 15,0 C 98 % 1017,1 hPa 0,0 l/m 0 min 0 min 122 W/m 9,7 km/h (2 Bft) 97,83 %
10.08.2021 09:08 15,8 C 16,1 C 15,0 C 98 % 1017,1 hPa 0,0 l/m 0 min 0 min 120 W/m 12,9 km/h (3 Bft) 97,87 %
10.08.2021 09:10 15,8 C 16,1 C 15,0 C 98 % 1017,1 hPa 0,0 l/m 0 min 0 min 138 W/m 3,2 km/h (1 Bft) 97,87 %
10.08.2021 09:12 15,8 C 16,1 C 15,0 C 98 % 1017,1 hPa 0,0 l/m 0 min 0 min 180 W/m 6,4 km/h (2 Bft) 95,74 %
10.08.2021 09:14 15,9 C 17,2 C 15,6 C 98 % 1017,2 hPa 0,0 l/m 0 min 0 min 214 W/m 3,2 km/h (1 Bft) 97,87 %
10.08.2021 09:16 15,9 C 18,9 C 16,1 C 98 % 1017,2 hPa 0,0 l/m 2 min 0 min 506 W/m 9,7 km/h (2 Bft) 97,87 %
10.08.2021 09:18 16,0 C 18,9 C 16,1 C 98 % 1017,2 hPa 0,0 l/m 2 min 0 min 242 W/m 6,4 km/h (2 Bft) 97,83 %
10.08.2021 09:20 16,1 C 18,3 C 16,1 C 98 % 1017,3 hPa 0,0 l/m 0 min 0 min 187 W/m 12,9 km/h (3 Bft) 97,87 %
10.08.2021 09:22 16,1 C 17,8 C 16,1 C 98 % 1017,3 hPa 0,0 l/m 0 min 0 min 203 W/m 6,4 km/h (2 Bft) 100,00 %
10.08.2021 09:24 16,2 C 17,8 C 15,6 C 98 % 1017,2 hPa 0,0 l/m 2 min 0 min 244 W/m 6,4 km/h (2 Bft) 100,00 %
10.08.2021 09:26 16,2 C 17,2 C 15,6 C 98 % 1017,2 hPa 0,0 l/m 0 min 0 min 228 W/m 3,2 km/h (1 Bft) 97,87 %
10.08.2021 09:28 16,2 C 17,8 C 15,6 C 98 % 1017,2 hPa 0,0 l/m 2 min 0 min 247 W/m 3,2 km/h (1 Bft) 95,74 %
10.08.2021 09:30 16,3 C 17,8 C 15,6 C 98 % 1017,2 hPa 0,0 l/m 0 min 0 min 221 W/m 3,2 km/h (1 Bft) 100,00 %
10.08.2021 09:32 16,3 C 17,2 C 15,6 C 98 % 1017,3 hPa 0,0 l/m 0 min 0 min 212 W/m 12,9 km/h (3 Bft) 95,74 %
10.08.2021 09:34 16,4 C 17,2 C 15,6 C 98 % 1017,3 hPa 0,0 l/m 0 min 0 min 206 W/m 12,9 km/h (3 Bft) 97,87 %
10.08.2021 09:36 16,4 C 17,2 C 15,6 C 98 % 1017,4 hPa 0,0 l/m 0 min 0 min 208 W/m 6,4 km/h (2 Bft) 95,74 %
10.08.2021 09:38 16,4 C 17,2 C 16,1 C 98 % 1017,3 hPa 0,0 l/m 0 min 0 min 222 W/m 16,1 km/h (3 Bft) 97,87 %
10.08.2021 09:40 16,4 C 17,8 C 16,1 C 98 % 1017,3 hPa 0,0 l/m 0 min 0 min 232 W/m 16,1 km/h (3 Bft) 97,87 %
10.08.2021 09:42 16,5 C 17,8 C 16,1 C 97 % 1017,2 hPa 0,0 l/m 2 min 0 min 259 W/m 3,2 km/h (1 Bft) 100,00 %
10.08.2021 09:44 16,5 C 18,3 C 16,1 C 97 % 1017,3 hPa 0,0 l/m 2 min 0 min 285 W/m 3,2 km/h (1 Bft) 100,00 %
10.08.2021 09:46 16,6 C 18,3 C 16,1 C 97 % 1017,3 hPa 0,0 l/m 2 min 0 min 263 W/m 9,7 km/h (2 Bft) 100,00 %
10.08.2021 09:48 16,7 C 18,3 C 16,1 C 97 % 1017,3 hPa 0,0 l/m 2 min 0 min 279 W/m 6,4 km/h (2 Bft) 97,87 %
10.08.2021 09:50 16,8 C 18,3 C 16,1 C 97 % 1017,3 hPa 0,0 l/m 2 min 0 min 274 W/m 6,4 km/h (2 Bft) 97,87 %
10.08.2021 09:52 16,8 C 18,3 C 16,1 C 97 % 1017,4 hPa 0,0 l/m 2 min 0 min 312 W/m 12,9 km/h (3 Bft) 100,00 %
10.08.2021 09:54 16,9 C 18,3 C 16,1 C 97 % 1017,4 hPa 0,0 l/m 2 min 0 min 354 W/m 16,1 km/h (3 Bft) 100,00 %
10.08.2021 09:56 16,9 C 18,3 C 16,1 C 97 % 1017,3 hPa 0,0 l/m 2 min 0 min 303 W/m 12,9 km/h (3 Bft) 100,00 %
10.08.2021 09:58 17,0 C 18,3 C 16,1 C 96 % 1017,3 hPa 0,0 l/m 0 min 0 min 245 W/m 3,2 km/h (1 Bft) 97,87 %
10.08.2021 10:00 17,0 C 18,3 C 16,1 C 96 % 1017,3 hPa 0,0 l/m 0 min 0 min 211 W/m 12,9 km/h (3 Bft) 91,49 %
10.08.2021 10:02 17,0 C 18,3 C 16,1 C 96 % 1017,3 hPa 0,0 l/m 0 min 0 min 189 W/m 16,1 km/h (3 Bft) 93,62 %
10.08.2021 10:04 17,1 C 17,8 C 16,1 C 96 % 1017,3 hPa 0,0 l/m 0 min 0 min 208 W/m 6,4 km/h (2 Bft) 95,74 %
10.08.2021 10:06 17,1 C 17,8 C 16,1 C 96 % 1017,3 hPa 0,0 l/m 0 min 0 min 229 W/m 3,2 km/h (1 Bft) 97,83 %
10.08.2021 10:08 17,1 C 17,8 C 16,1 C 95 % 1017,2 hPa 0,0 l/m 0 min 0 min 242 W/m 9,7 km/h (2 Bft) 97,87 %
10.08.2021 10:10 17,1 C 17,8 C 16,1 C 95 % 1017,2 hPa 0,0 l/m 0 min 0 min 211 W/m 12,9 km/h (3 Bft) 91,49 %
10.08.2021 10:12 17,2 C 17,8 C 16,1 C 95 % 1017,2 hPa 0,0 l/m 0 min 0 min 198 W/m 6,4 km/h (2 Bft) 93,62 %
10.08.2021 10:14 17,2 C 17,8 C 16,1 C 95 % 1017,3 hPa 0,0 l/m 0 min 0 min 193 W/m 19,3 km/h (3 Bft) 97,87 %
10.08.2021 10:16 17,2 C 17,8 C 16,1 C 94 % 1017,3 hPa 0,0 l/m 0 min 0 min 235 W/m 12,9 km/h (3 Bft) 97,83 %
10.08.2021 10:18 17,3 C 17,8 C 16,1 C 94 % 1017,3 hPa 0,0 l/m 0 min 0 min 274 W/m 6,4 km/h (2 Bft) 97,87 %
10.08.2021 10:20 17,4 C 17,8 C 16,1 C 93 % 1017,3 hPa 0,0 l/m 0 min 0 min 244 W/m 12,9 km/h (3 Bft) 97,87 %
10.08.2021 10:22 17,4 C 17,8 C 16,1 C 93 % 1017,3 hPa 0,0 l/m 0 min 0 min 199 W/m 6,4 km/h (2 Bft) 97,87 %
10.08.2021 10:24 17,4 C 17,8 C 16,1 C 93 % 1017,2 hPa 0,0 l/m 0 min 0 min 214 W/m 16,1 km/h (3 Bft) 97,87 %
10.08.2021 10:26 17,4 C 17,8 C 16,1 C 92 % 1017,2 hPa 0,0 l/m 0 min 0 min 228 W/m 12,9 km/h (3 Bft) 97,87 %
10.08.2021 10:28 17,5 C 17,8 C 16,1 C 92 % 1017,2 hPa 0,0 l/m 0 min 0 min 229 W/m 3,2 km/h (1 Bft) 97,87 %
10.08.2021 10:30 17,5 C 17,8 C 16,1 C 92 % 1017,1 hPa 0,0 l/m 0 min 0 min 238 W/m 3,2 km/h (1 Bft) 91,30 %
10.08.2021 10:32 17,6 C 17,8 C 16,1 C 92 % 1017,2 hPa 0,0 l/m 0 min 0 min 218 W/m 9,7 km/h (2 Bft) 95,74 %
10.08.2021 10:34 17,6 C 17,8 C 16,1 C 91 % 1017,2 hPa 0,0 l/m 0 min 0 min 230 W/m 6,4 km/h (2 Bft) 89,36 %
10.08.2021 10:36 17,7 C 17,8 C 16,1 C 91 % 1017,2 hPa 0,0 l/m 0 min 0 min 245 W/m 3,2 km/h (1 Bft) 95,74 %
10.08.2021 10:38 17,8 C 18,3 C 16,1 C 91 % 1017,2 hPa 0,0 l/m 0 min 0 min 256 W/m 6,4 km/h (2 Bft) 91,49 %
10.08.2021 10:40 17,8 C 18,3 C 16,1 C 91 % 1017,3 hPa 0,0 l/m 0 min 0 min 234 W/m 9,7 km/h (2 Bft) 89,13 %
10.08.2021 10:42 17,8 C 17,8 C 16,1 C 91 % 1017,2 hPa 0,0 l/m 0 min 0 min 201 W/m 12,9 km/h (3 Bft) 91,49 %
10.08.2021 10:44 17,8 C 17,8 C 16,1 C 90 % 1017,3 hPa 0,0 l/m 0 min 0 min 165 W/m 6,4 km/h (2 Bft) 85,11 %
10.08.2021 10:46 17,8 C 17,8 C 15,6 C 90 % 1017,3 hPa 0,0 l/m 0 min 0 min 137 W/m 19,3 km/h (3 Bft) 82,98 %
10.08.2021 10:48 17,8 C 17,2 C 15,6 C 90 % 1017,3 hPa 0,0 l/m 0 min 2 min 135 W/m 6,4 km/h (2 Bft) 89,36 %
10.08.2021 10:50 17,8 C 17,2 C 15,6 C 90 % 1017,3 hPa 0,0 l/m 0 min 2 min 139 W/m 9,7 km/h (2 Bft) 95,74 %
10.08.2021 10:52 17,8 C 17,2 C 15,6 C 90 % 1017,3 hPa 0,2 l/m 0 min 2 min 160 W/m 19,3 km/h (3 Bft) 91,49 %
10.08.2021 10:54 17,7 C 17,2 C 15,6 C 90 % 1017,4 hPa 0,0 l/m 0 min 2 min 194 W/m 12,9 km/h (3 Bft) 86,96 %
10.08.2021 10:56 17,6 C 17,2 C 15,6 C 90 % 1017,4 hPa 0,0 l/m 0 min 2 min 222 W/m 9,7 km/h (2 Bft) 95,74 %
10.08.2021 10:58 17,6 C 17,2 C 15,6 C 91 % 1017,4 hPa 0,0 l/m 0 min 2 min 222 W/m 19,3 km/h (3 Bft) 93,62 %
10.08.2021 11:00 17,6 C 17,2 C 15,6 C 91 % 1017,4 hPa 0,0 l/m 0 min 2 min 199 W/m 6,4 km/h (2 Bft) 93,62 %
10.08.2021 11:02 17,6 C 17,2 C 15,6 C 91 % 1017,4 hPa 0,0 l/m 0 min 2 min 179 W/m 12,9 km/h (3 Bft) 85,11 %
10.08.2021 11:04 17,6 C 17,2 C 15,6 C 91 % 1017,4 hPa 0,0 l/m 0 min 2 min 162 W/m 12,9 km/h (3 Bft) 73,91 %
10.08.2021 11:06 17,5 C 17,2 C 15,6 C 91 % 1017,3 hPa 0,0 l/m 0 min 2 min 147 W/m 12,9 km/h (3 Bft) 89,36 %
10.08.2021 11:08 17,5 C 17,2 C 15,6 C 91 % 1017,2 hPa 0,0 l/m 0 min 2 min 155 W/m 6,4 km/h (2 Bft) 93,62 %
10.08.2021 11:10 17,5 C 17,2 C 15,6 C 92 % 1017,2 hPa 0,0 l/m 0 min 2 min 171 W/m 3,2 km/h (1 Bft) 76,60 %
10.08.2021 11:12 17,6 C 16,7 C 15,6 C 92 % 1017,2 hPa 0,0 l/m 0 min 2 min 187 W/m 3,2 km/h (1 Bft) 65,96 %
10.08.2021 11:14 17,6 C 16,7 C 15,6 C 92 % 1017,2 hPa 0,0 l/m 0 min 2 min 195 W/m 6,4 km/h (2 Bft) 78,72 %
10.08.2021 11:16 17,6 C 17,2 C 16,1 C 92 % 1017,1 hPa 0,2 l/m 0 min 2 min 189 W/m 3,2 km/h (1 Bft) 91,30 %
10.08.2021 11:18 17,6 C 17,2 C 16,1 C 92 % 1017,0 hPa 0,0 l/m 0 min 0 min 182 W/m 3,2 km/h (1 Bft) 93,62 %
10.08.2021 11:20 17,7 C 17,2 C 15,6 C 93 % 1017,1 hPa 0,0 l/m 0 min 0 min 188 W/m 3,2 km/h (1 Bft) 93,62 %
10.08.2021 11:22 17,7 C 17,2 C 15,6 C 93 % 1017,1 hPa 0,0 l/m 0 min 0 min 211 W/m 3,2 km/h (1 Bft) 95,74 %
10.08.2021 11:24 17,7 C 17,2 C 16,1 C 93 % 1017,1 hPa 0,0 l/m 0 min 0 min 245 W/m 3,2 km/h (1 Bft) 95,74 %
10.08.2021 11:26 17,7 C 17,8 C 16,1 C 93 % 1017,1 hPa 0,0 l/m 0 min 0 min 259 W/m 6,4 km/h (2 Bft) 76,60 %
10.08.2021 11:28 17,6 C 17,8 C 16,1 C 93 % 1017,1 hPa 0,0 l/m 0 min 0 min 285 W/m 6,4 km/h (2 Bft) 91,30 %
10.08.2021 11:30 17,6 C 17,8 C 16,1 C 93 % 1017,2 hPa 0,0 l/m 0 min 0 min 287 W/m 6,4 km/h (2 Bft) 91,49 %
10.08.2021 11:32 17,6 C 17,8 C 16,1 C 92 % 1017,2 hPa 0,0 l/m 0 min 0 min 291 W/m 6,4 km/h (2 Bft) 95,74 %
10.08.2021 11:34 17,6 C 17,8 C 16,1 C 92 % 1017,1 hPa 0,0 l/m 0 min 0 min 310 W/m 6,4 km/h (2 Bft) 100,00 %
10.08.2021 11:36 17,6 C 17,8 C 16,1 C 92 % 1017,1 hPa 0,0 l/m 0 min 0 min 314 W/m 6,4 km/h (2 Bft) 100,00 %
10.08.2021 11:38 17,7 C 18,3 C 16,1 C 92 % 1017,1 hPa 0,0 l/m 0 min 0 min 308 W/m 9,7 km/h (2 Bft) 97,87 %
10.08.2021 11:40 17,7 C 18,3 C 16,1 C 92 % 1017,1 hPa 0,0 l/m 0 min 0 min 323 W/m 9,7 km/h (2 Bft) 100,00 %
10.08.2021 11:42 17,7 C 18,3 C 16,1 C 92 % 1017,1 hPa 0,0 l/m 0 min 0 min 331 W/m 12,9 km/h (3 Bft) 97,87 %
10.08.2021 11:44 17,7 C 18,3 C 16,1 C 92 % 1017,1 hPa 0,0 l/m 0 min 0 min 338 W/m 6,4 km/h (2 Bft) 100,00 %
10.08.2021 11:46 17,8 C 18,3 C 16,7 C 92 % 1017,2 hPa 0,0 l/m 2 min 0 min 370 W/m 12,9 km/h (3 Bft) 97,87 %
10.08.2021 11:48 17,8 C 18,9 C 16,7 C 92 % 1017,2 hPa 0,0 l/m 0 min 0 min 354 W/m 3,2 km/h (1 Bft) 100,00 %
10.08.2021 11:50 17,9 C 18,3 C 16,1 C 92 % 1017,3 hPa 0,0 l/m 0 min 0 min 286 W/m 12,9 km/h (3 Bft) 100,00 %
10.08.2021 11:52 17,9 C 18,3 C 16,1 C 92 % 1017,3 hPa 0,0 l/m 0 min 0 min 288 W/m 6,4 km/h (2 Bft) 100,00 %
10.08.2021 11:54 18,0 C 18,3 C 16,7 C 92 % 1017,2 hPa 0,0 l/m 0 min 0 min 287 W/m 6,4 km/h (2 Bft) 97,87 %
10.08.2021 11:56 18,0 C 18,3 C 16,7 C 92 % 1017,2 hPa 0,0 l/m 0 min 0 min 269 W/m 6,4 km/h (2 Bft) 100,00 %
10.08.2021 11:58 18,0 C 18,3 C 16,7 C 92 % 1017,2 hPa 0,0 l/m 0 min 0 min 332 W/m 6,4 km/h (2 Bft) 100,00 %
10.08.2021 12:00 18,1 C 18,3 C 16,7 C 91 % 1017,2 hPa 0,0 l/m 0 min 0 min 361 W/m 6,4 km/h (2 Bft) 100,00 %
10.08.2021 12:02 18,1 C 18,3 C 16,7 C 92 % 1017,1 hPa 0,0 l/m 0 min 0 min 325 W/m 6,4 km/h (2 Bft) 100,00 %
10.08.2021 12:04 18,1 C 18,9 C 16,7 C 91 % 1017,1 hPa 0,0 l/m 0 min 0 min 338 W/m 6,4 km/h (2 Bft) 100,00 %
10.08.2021 12:08 18,2 C 18,3 C 16,7 C 91 % 1017,1 hPa 0,0 l/m 0 min 0 min 261 W/m 12,9 km/h (3 Bft) 100,00 %
10.08.2021 12:10 18,3 C 18,3 C 16,7 C 91 % 1017,2 hPa 0,0 l/m 0 min 0 min 234 W/m 6,4 km/h (2 Bft) 100,00 %
10.08.2021 12:12 18,3 C 18,9 C 16,7 C 91 % 1017,2 hPa 0,0 l/m 0 min 0 min 283 W/m 3,2 km/h (1 Bft) 100,00 %
10.08.2021 12:14 18,4 C 18,9 C 17,3 C 91 % 1017,3 hPa 0,0 l/m 0 min 0 min 277 W/m 3,2 km/h (1 Bft) 100,00 %
10.08.2021 12:16 18,4 C 18,9 C 17,3 C 91 % 1017,2 hPa 0,0 l/m 0 min 0 min 234 W/m 6,4 km/h (2 Bft) 97,87 %
10.08.2021 12:18 18,4 C 18,9 C 17,3 C 91 % 1017,3 hPa 0,0 l/m 0 min 0 min 233 W/m 6,4 km/h (2 Bft) 100,00 %
10.08.2021 12:20 18,4 C 18,9 C 17,3 C 91 % 1017,2 hPa 0,0 l/m 0 min 0 min 274 W/m 9,7 km/h (2 Bft) 100,00 %
10.08.2021 12:22 18,5 C 18,9 C 17,3 C 91 % 1017,2 hPa 0,0 l/m 0 min 0 min 256 W/m 3,2 km/h (1 Bft) 100,00 %
10.08.2021 12:24 18,5 C 19,4 C 18,9 C 91 % 1017,2 hPa 0,0 l/m 0 min 0 min 307 W/m 6,4 km/h (2 Bft) 100,00 %
10.08.2021 12:26 18,6 C 20,6 C 21,7 C 91 % 1017,1 hPa 0,0 l/m 2 min 0 min 645 W/m 6,4 km/h (2 Bft) 100,00 %
10.08.2021 12:28 18,8 C 21,7 C 23,4 C 91 % 1017,2 hPa 0,0 l/m 2 min 0 min 848 W/m 12,9 km/h (3 Bft) 100,00 %
10.08.2021 12:30 18,9 C 21,7 C 23,9 C 91 % 1017,2 hPa 0,0 l/m 2 min 0 min 751 W/m 6,4 km/h (2 Bft) 97,87 %
10.08.2021 12:32 19,1 C 22,2 C 22,8 C 91 % 1017,2 hPa 0,0 l/m 2 min 0 min 765 W/m 6,4 km/h (2 Bft) 100,00 %
10.08.2021 12:34 19,2 C 22,2 C 22,3 C 90 % 1017,1 hPa 0,0 l/m 2 min 0 min 625 W/m 16,1 km/h (3 Bft) 100,00 %
10.08.2021 12:36 19,3 C 21,7 C 21,7 C 89 % 1017,1 hPa 0,0 l/m 2 min 0 min 610 W/m 12,9 km/h (3 Bft) 100,00 %
10.08.2021 12:38 19,4 C 21,7 C 21,1 C 89 % 1017,1 hPa 0,0 l/m 2 min 0 min 590 W/m 12,9 km/h (3 Bft) 100,00 %
10.08.2021 12:40 19,4 C 21,1 C 20,6 C 88 % 1017,1 hPa 0,0 l/m 2 min 0 min 504 W/m 6,4 km/h (2 Bft) 100,00 %
10.08.2021 12:42 19,5 C 21,1 C 20,0 C 88 % 1017,0 hPa 0,0 l/m 2 min 0 min 385 W/m 9,7 km/h (2 Bft) 100,00 %
10.08.2021 12:44 19,6 C 21,1 C 20,0 C 88 % 1017,1 hPa 0,0 l/m 0 min 0 min 348 W/m 6,4 km/h (2 Bft) 100,00 %
10.08.2021 12:46 19,6 C 21,1 C 19,5 C 87 % 1017,1 hPa 0,0 l/m 0 min 0 min 340 W/m 12,9 km/h (3 Bft) 97,87 %
10.08.2021 12:48 19,8 C 21,7 C 20,0 C 87 % 1017,0 hPa 0,0 l/m 2 min 0 min 691 W/m 12,9 km/h (3 Bft) 97,87 %
10.08.2021 12:50 19,8 C 21,7 C 20,0 C 86 % 1017,0 hPa 0,0 l/m 2 min 0 min 634 W/m 12,9 km/h (3 Bft) 100,00 %
10.08.2021 12:52 19,9 C 21,1 C 20,0 C 85 % 1017,0 hPa 0,0 l/m 0 min 0 min 371 W/m 6,4 km/h (2 Bft) 95,74 %
10.08.2021 12:54 20,0 C 21,7 C 20,0 C 85 % 1017,0 hPa 0,0 l/m 0 min 0 min 378 W/m 9,7 km/h (2 Bft) 100,00 %
10.08.2021 12:56 20,1 C 21,1 C 20,0 C 85 % 1017,0 hPa 0,0 l/m 0 min 0 min 354 W/m 9,7 km/h (2 Bft) 97,87 %
10.08.2021 12:58 20,1 C 21,1 C 19,5 C 85 % 1017,0 hPa 0,0 l/m 0 min 0 min 313 W/m 6,4 km/h (2 Bft) 100,00 %
10.08.2021 13:00 20,1 C 20,6 C 19,5 C 84 % 1017,0 hPa 0,0 l/m 0 min 0 min 345 W/m 19,3 km/h (3 Bft) 95,74 %
10.08.2021 13:02 20,1 C 21,1 C 19,5 C 84 % 1017,1 hPa 0,0 l/m 2 min 0 min 400 W/m 16,1 km/h (3 Bft) 95,74 %
10.08.2021 13:04 20,2 C 20,6 C 19,5 C 84 % 1017,1 hPa 0,0 l/m 0 min 0 min 373 W/m 16,1 km/h (3 Bft) 97,83 %
10.08.2021 13:06 20,1 C 20,6 C 19,5 C 82 % 1017,0 hPa 0,0 l/m 0 min 0 min 303 W/m 12,9 km/h (3 Bft) 95,74 %
10.08.2021 13:08 20,1 C 20,6 C 19,5 C 82 % 1017,1 hPa 0,0 l/m 0 min 0 min 338 W/m 25,7 km/h (4 Bft) 95,74 %
10.08.2021 13:10 20,1 C 20,6 C 19,5 C 82 % 1017,0 hPa 0,0 l/m 0 min 0 min 360 W/m 19,3 km/h (3 Bft) 95,74 %
10.08.2021 13:12 20,1 C 21,1 C 19,5 C 83 % 1017,0 hPa 0,0 l/m 2 min 0 min 404 W/m 9,7 km/h (2 Bft) 95,74 %
10.08.2021 13:14 20,3 C 21,7 C 20,0 C 83 % 1017,1 hPa 0,0 l/m 2 min 0 min 404 W/m 6,4 km/h (2 Bft) 93,62 %
10.08.2021 13:16 20,4 C 21,7 C 20,0 C 82 % 1017,0 hPa 0,0 l/m 2 min 0 min 404 W/m 12,9 km/h (3 Bft) 95,65 %
10.08.2021 13:18 20,5 C 21,1 C 19,5 C 82 % 1017,0 hPa 0,0 l/m 0 min 0 min 291 W/m 12,9 km/h (3 Bft) 95,74 %
10.08.2021 13:20 20,5 C 21,1 C 20,0 C 81 % 1016,9 hPa 0,0 l/m 0 min 0 min 288 W/m 9,7 km/h (2 Bft) 93,62 %
10.08.2021 13:22 20,6 C 21,7 C 20,0 C 82 % 1017,0 hPa 0,0 l/m 0 min 0 min 318 W/m 3,2 km/h (1 Bft) 93,62 %
10.08.2021 13:24 20,7 C 21,7 C 20,0 C 82 % 1016,9 hPa 0,0 l/m 0 min 0 min 218 W/m 12,9 km/h (3 Bft) 93,62 %
10.08.2021 13:26 20,7 C 21,7 C 20,0 C 81 % 1016,9 hPa 0,0 l/m 2 min 0 min 400 W/m 12,9 km/h (3 Bft) 93,62 %
10.08.2021 13:28 20,7 C 21,7 C 19,5 C 80 % 1016,9 hPa 0,0 l/m 2 min 0 min 711 W/m 6,4 km/h (2 Bft) 95,65 %
10.08.2021 13:30 20,7 C 21,1 C 19,5 C 80 % 1016,9 hPa 0,0 l/m 0 min 0 min 227 W/m 6,4 km/h (2 Bft) 93,62 %
10.08.2021 13:32 20,7 C 21,7 C 20,0 C 80 % 1017,0 hPa 0,0 l/m 0 min 0 min 230 W/m 12,9 km/h (3 Bft) 93,62 %
10.08.2021 13:34 20,8 C 22,2 C 20,0 C 80 % 1016,9 hPa 0,0 l/m 2 min 0 min 605 W/m 19,3 km/h (3 Bft) 93,62 %
10.08.2021 13:36 20,9 C 22,8 C 20,0 C 79 % 1016,9 hPa 0,0 l/m 2 min 0 min 721 W/m 12,9 km/h (3 Bft) 95,74 %
10.08.2021 13:38 21,0 C 22,8 C 20,0 C 78 % 1016,9 hPa 0,0 l/m 2 min 0 min 1031 W/m 19,3 km/h (3 Bft) 93,62 %
10.08.2021 13:40 21,1 C 22,8 C 20,0 C 78 % 1016,9 hPa 0,0 l/m 2 min 0 min 851 W/m 12,9 km/h (3 Bft) 95,65 %
10.08.2021 13:42 21,3 C 23,3 C 20,0 C 78 % 1016,9 hPa 0,0 l/m 2 min 0 min 638 W/m 19,3 km/h (3 Bft) 95,74 %
10.08.2021 13:44 21,4 C 23,9 C 20,0 C 77 % 1016,9 hPa 0,0 l/m 2 min 0 min 958 W/m 19,3 km/h (3 Bft) 95,74 %
10.08.2021 13:46 21,5 C 23,9 C 20,6 C 77 % 1016,9 hPa 0,0 l/m 2 min 0 min 1008 W/m 16,1 km/h (3 Bft) 91,49 %
10.08.2021 13:48 21,7 C 23,9 C 20,6 C 77 % 1016,8 hPa 0,0 l/m 2 min 0 min 1085 W/m 19,3 km/h (3 Bft) 95,74 %
10.08.2021 13:50 21,8 C 24,4 C 20,6 C 76 % 1016,8 hPa 0,0 l/m 2 min 0 min 1110 W/m 16,1 km/h (3 Bft) 97,87 %
10.08.2021 13:52 21,9 C 23,9 C 21,1 C 76 % 1016,8 hPa 0,0 l/m 2 min 0 min 1121 W/m 6,4 km/h (2 Bft) 95,65 %
10.08.2021 13:54 22,0 C 25,0 C 21,1 C 76 % 1016,8 hPa 0,0 l/m 2 min 0 min 1091 W/m 9,7 km/h (2 Bft) 97,87 %
10.08.2021 13:56 22,2 C 25,0 C 21,1 C 75 % 1016,8 hPa 0,0 l/m 2 min 0 min 1048 W/m 29,0 km/h (5 Bft) 97,87 %
10.08.2021 13:58 22,2 C 25,0 C 21,1 C 73 % 1016,8 hPa 0,0 l/m 2 min 0 min 969 W/m 19,3 km/h (3 Bft) 97,87 %
10.08.2021 14:00 22,3 C 25,6 C 21,1 C 74 % 1016,7 hPa 0,0 l/m 2 min 0 min 972 W/m 9,7 km/h (2 Bft) 97,87 %
10.08.2021 14:02 22,5 C 26,1 C 21,1 C 74 % 1016,8 hPa 0,0 l/m 2 min 0 min 980 W/m 16,1 km/h (3 Bft) 95,74 %
10.08.2021 14:04 22,6 C 25,6 C 21,1 C 73 % 1016,7 hPa 0,0 l/m 2 min 0 min 950 W/m 12,9 km/h (3 Bft) 95,65 %
10.08.2021 14:06 22,6 C 26,1 C 21,1 C 73 % 1016,8 hPa 0,0 l/m 2 min 0 min 921 W/m 16,1 km/h (3 Bft) 97,87 %
10.08.2021 14:08 22,6 C 26,1 C 21,1 C 72 % 1016,8 hPa 0,0 l/m 2 min 0 min 1015 W/m 12,9 km/h (3 Bft) 97,87 %
10.08.2021 14:10 22,7 C 25,6 C 21,1 C 72 % 1016,7 hPa 0,0 l/m 2 min 0 min 976 W/m 19,3 km/h (3 Bft) 97,87 %
10.08.2021 14:12 22,7 C 25,0 C 21,1 C 71 % 1016,7 hPa 0,0 l/m 2 min 0 min 830 W/m 16,1 km/h (3 Bft) 97,87 %
10.08.2021 14:14 22,7 C 25,0 C 21,1 C 72 % 1016,7 hPa 0,0 l/m 0 min 0 min 353 W/m 12,9 km/h (3 Bft) 97,83 %
10.08.2021 14:16 22,7 C 25,0 C 21,1 C 71 % 1016,6 hPa 0,0 l/m 2 min 0 min 938 W/m 12,9 km/h (3 Bft) 97,87 %
10.08.2021 14:18 22,8 C 25,6 C 21,1 C 72 % 1016,6 hPa 0,0 l/m 2 min 0 min 1015 W/m 12,9 km/h (3 Bft) 93,62 %
10.08.2021 14:20 22,8 C 25,6 C 20,6 C 72 % 1016,5 hPa 0,0 l/m 2 min 0 min 971 W/m 12,9 km/h (3 Bft) 97,87 %
10.08.2021 14:22 22,9 C 25,6 C 20,6 C 71 % 1016,5 hPa 0,0 l/m 2 min 0 min 922 W/m 19,3 km/h (3 Bft) 97,87 %
10.08.2021 14:24 22,9 C 26,1 C 20,6 C 71 % 1016,5 hPa 0,0 l/m 2 min 0 min 939 W/m 6,4 km/h (2 Bft) 100,00 %
10.08.2021 14:26 23,0 C 26,1 C 21,1 C 72 % 1016,5 hPa 0,0 l/m 2 min 0 min 969 W/m 25,7 km/h (4 Bft) 100,00 %
10.08.2021 14:28 23,0 C 25,0 C 21,1 C 70 % 1016,5 hPa 0,0 l/m 2 min 0 min 423 W/m 19,3 km/h (3 Bft) 100,00 %
10.08.2021 14:30 22,9 C 24,4 C 21,1 C 68 % 1016,5 hPa 0,0 l/m 2 min 0 min 434 W/m 16,1 km/h (3 Bft) 100,00 %
10.08.2021 14:32 22,8 C 24,4 C 21,1 C 70 % 1016,4 hPa 0,0 l/m 2 min 0 min 462 W/m 9,7 km/h (2 Bft) 97,87 %
10.08.2021 14:34 22,8 C 24,4 C 21,1 C 69 % 1016,4 hPa 0,0 l/m 2 min 0 min 476 W/m 9,7 km/h (2 Bft) 100,00 %
10.08.2021 14:36 22,7 C 23,9 C 21,1 C 69 % 1016,4 hPa 0,0 l/m 2 min 0 min 501 W/m 22,5 km/h (4 Bft) 100,00 %
10.08.2021 14:38 22,7 C 23,9 C 21,1 C 71 % 1016,4 hPa 0,0 l/m 2 min 0 min 398 W/m 12,9 km/h (3 Bft) 100,00 %
10.08.2021 14:40 22,6 C 23,3 C 20,6 C 69 % 1016,4 hPa 0,0 l/m 2 min 0 min 426 W/m 12,9 km/h (3 Bft) 100,00 %
10.08.2021 14:42 22,5 C 23,3 C 20,6 C 70 % 1016,3 hPa 0,0 l/m 2 min 0 min 475 W/m 16,1 km/h (3 Bft) 100,00 %
10.08.2021 14:44 22,5 C 22,8 C 20,6 C 70 % 1016,3 hPa 0,0 l/m 2 min 0 min 469 W/m 12,9 km/h (3 Bft) 97,87 %
10.08.2021 14:46 22,4 C 22,8 C 20,6 C 69 % 1016,3 hPa 0,0 l/m 2 min 0 min 453 W/m 19,3 km/h (3 Bft) 100,00 %
10.08.2021 14:48 22,4 C 23,3 C 20,6 C 69 % 1016,2 hPa 0,0 l/m 2 min 0 min 467 W/m 9,7 km/h (2 Bft) 100,00 %
10.08.2021 14:50 22,4 C 23,3 C 21,1 C 70 % 1016,3 hPa 0,0 l/m 2 min 0 min 528 W/m 9,7 km/h (2 Bft) 100,00 %
10.08.2021 14:52 22,5 C 23,9 C 21,1 C 70 % 1016,3 hPa 0,0 l/m 2 min 0 min 632 W/m 9,7 km/h (2 Bft) 97,87 %
10.08.2021 14:54 22,6 C 24,4 C 21,1 C 70 % 1016,2 hPa 0,0 l/m 2 min 0 min 703 W/m 12,9 km/h (3 Bft) 100,00 %
10.08.2021 14:56 22,6 C 23,9 C 21,1 C 69 % 1016,2 hPa 0,0 l/m 2 min 0 min 447 W/m 16,1 km/h (3 Bft) 97,87 %
10.08.2021 14:58 22,6 C 23,9 C 21,1 C 70 % 1016,2 hPa 0,0 l/m 0 min 0 min 350 W/m 9,7 km/h (2 Bft) 97,87 %
10.08.2021 15:00 22,6 C 23,3 C 21,1 C 70 % 1016,2 hPa 0,0 l/m 0 min 0 min 367 W/m 19,3 km/h (3 Bft) 100,00 %
10.08.2021 15:02 22,6 C 23,3 C 20,6 C 68 % 1016,3 hPa 0,0 l/m 2 min 0 min 401 W/m 12,9 km/h (3 Bft) 100,00 %
10.08.2021 15:04 22,6 C 23,3 C 20,6 C 69 % 1016,4 hPa 0,0 l/m 0 min 0 min 352 W/m 12,9 km/h (3 Bft) 100,00 %
10.08.2021 15:06 22,5 C 22,8 C 20,6 C 69 % 1016,3 hPa 0,0 l/m 0 min 0 min 360 W/m 6,4 km/h (2 Bft) 95,74 %
10.08.2021 15:08 22,5 C 22,8 C 20,6 C 71 % 1016,3 hPa 0,0 l/m 2 min 2 min 396 W/m 12,9 km/h (3 Bft) 97,87 %
10.08.2021 15:10 22,5 C 22,8 C 20,6 C 71 % 1016,4 hPa 0,0 l/m 0 min 2 min 343 W/m 12,9 km/h (3 Bft) 97,87 %
10.08.2021 15:12 22,4 C 22,8 C 20,0 C 71 % 1016,3 hPa 0,0 l/m 0 min 0 min 298 W/m 9,7 km/h (2 Bft) 95,74 %
10.08.2021 15:14 22,4 C 22,2 C 20,0 C 72 % 1016,4 hPa 0,0 l/m 0 min 0 min 305 W/m 9,7 km/h (2 Bft) 97,83 %
10.08.2021 15:16 22,3 C 22,2 C 20,0 C 71 % 1016,4 hPa 0,0 l/m 0 min 0 min 308 W/m 12,9 km/h (3 Bft) 97,87 %
10.08.2021 15:18 22,2 C 22,2 C 20,0 C 72 % 1016,4 hPa 0,0 l/m 0 min 0 min 305 W/m 19,3 km/h (3 Bft) 97,87 %
10.08.2021 15:20 22,1 C 21,7 C 20,0 C 72 % 1016,4 hPa 0,0 l/m 0 min 0 min 311 W/m 12,9 km/h (3 Bft) 97,87 %
10.08.2021 15:22 22,0 C 21,7 C 20,0 C 72 % 1016,4 hPa 0,0 l/m 0 min 0 min 312 W/m 16,1 km/h (3 Bft) 100,00 %
10.08.2021 15:24 21,9 C 21,7 C 19,5 C 72 % 1016,4 hPa 0,0 l/m 0 min 0 min 304 W/m 16,1 km/h (3 Bft) 97,87 %
10.08.2021 15:26 21,8 C 21,7 C 19,5 C 73 % 1016,5 hPa 0,0 l/m 0 min 2 min 337 W/m 16,1 km/h (3 Bft) 97,83 %
10.08.2021 15:28 21,6 C 21,1 C 18,9 C 74 % 1016,5 hPa 0,0 l/m 0 min 2 min 335 W/m 9,7 km/h (2 Bft) 95,74 %
10.08.2021 15:30 21,5 C 21,1 C 18,4 C 76 % 1016,5 hPa 0,0 l/m 0 min 2 min 344 W/m 12,9 km/h (3 Bft) 97,87 %
10.08.2021 15:32 21,4 C 21,1 C 18,4 C 77 % 1016,6 hPa 0,0 l/m 0 min 2 min 358 W/m 22,5 km/h (4 Bft) 97,92 %
10.08.2021 15:34 21,2 C 21,1 C 18,4 C 79 % 1016,5 hPa 0,0 l/m 2 min 0 min 364 W/m 16,1 km/h (3 Bft) 97,87 %
10.08.2021 15:36 21,0 C 21,1 C 18,4 C 80 % 1016,6 hPa 0,0 l/m 2 min 0 min 376 W/m 16,1 km/h (3 Bft) 97,87 %
10.08.2021 15:38 21,0 C 21,1 C 18,4 C 81 % 1016,6 hPa 0,0 l/m 2 min 0 min 365 W/m 16,1 km/h (3 Bft) 97,83 %
10.08.2021 15:40 20,9 C 21,1 C 18,4 C 81 % 1016,6 hPa 0,0 l/m 0 min 0 min 319 W/m 19,3 km/h (3 Bft) 100,00 %
10.08.2021 15:42 20,8 C 20,6 C 17,8 C 81 % 1016,5 hPa 0,0 l/m 0 min 0 min 325 W/m 25,7 km/h (4 Bft) 100,00 %
10.08.2021 15:44 20,7 C 20,6 C 17,8 C 80 % 1016,6 hPa 0,0 l/m 0 min 0 min 287 W/m 29,0 km/h (5 Bft) 95,74 %
10.08.2021 15:46 20,5 C 20,0 C 17,8 C 81 % 1016,5 hPa 0,0 l/m 0 min 0 min 259 W/m 6,4 km/h (2 Bft) 97,87 %
10.08.2021 15:48 20,5 C 20,6 C 17,8 C 82 % 1016,6 hPa 0,0 l/m 0 min 0 min 245 W/m 19,3 km/h (3 Bft) 100,00 %
10.08.2021 15:50 20,4 C 20,0 C 17,8 C 82 % 1016,5 hPa 0,0 l/m 0 min 0 min 244 W/m 22,5 km/h (4 Bft) 97,83 %
10.08.2021 15:52 20,3 C 20,0 C 17,8 C 82 % 1016,6 hPa 0,0 l/m 0 min 0 min 265 W/m 16,1 km/h (3 Bft) 97,87 %
10.08.2021 15:54 20,2 C 20,0 C 17,8 C 83 % 1016,6 hPa 0,0 l/m 0 min 2 min 255 W/m 16,1 km/h (3 Bft) 97,87 %
10.08.2021 15:56 20,2 C 20,0 C 17,8 C 83 % 1016,7 hPa 0,0 l/m 0 min 0 min 221 W/m 19,3 km/h (3 Bft) 97,87 %
10.08.2021 15:58 20,1 C 19,4 C 17,8 C 83 % 1016,7 hPa 0,0 l/m 0 min 0 min 191 W/m 19,3 km/h (3 Bft) 95,74 %
10.08.2021 16:00 20,0 C 19,4 C 17,8 C 84 % 1016,7 hPa 0,0 l/m 0 min 2 min 163 W/m 19,3 km/h (3 Bft) 97,87 %
10.08.2021 16:02 19,9 C 18,9 C 17,3 C 84 % 1016,7 hPa 0,0 l/m 0 min 2 min 141 W/m 16,1 km/h (3 Bft) 95,74 %
10.08.2021 16:04 19,8 C 18,9 C 17,3 C 85 % 1016,7 hPa 0,0 l/m 0 min 2 min 121 W/m 9,7 km/h (2 Bft) 97,87 %
10.08.2021 16:06 19,8 C 18,9 C 17,3 C 86 % 1016,8 hPa 0,0 l/m 0 min 2 min 109 W/m 16,1 km/h (3 Bft) 97,87 %
10.08.2021 16:08 19,7 C 18,9 C 16,7 C 86 % 1016,8 hPa 0,0 l/m 0 min 2 min 100 W/m 12,9 km/h (3 Bft) 97,87 %
10.08.2021 16:10 19,6 C 18,3 C 16,7 C 87 % 1016,8 hPa 0,2 l/m 0 min 2 min 96 W/m 6,4 km/h (2 Bft) 95,74 %
10.08.2021 16:12 19,5 C 17,8 C 16,1 C 88 % 1016,8 hPa 0,2 l/m 0 min 2 min 98 W/m 6,4 km/h (2 Bft) 97,83 %
10.08.2021 16:14 19,3 C 17,2 C 15,6 C 88 % 1016,7 hPa 0,2 l/m 0 min 2 min 110 W/m 9,7 km/h (2 Bft) 95,74 %
10.08.2021 16:16 19,1 C 16,7 C 15,6 C 88 % 1016,6 hPa 0,2 l/m 0 min 2 min 143 W/m 6,4 km/h (2 Bft) 97,87 %
10.08.2021 16:18 19,0 C 17,2 C 15,6 C 89 % 1016,5 hPa 0,0 l/m 0 min 2 min 185 W/m 6,4 km/h (2 Bft) 97,96 %
10.08.2021 16:20 18,9 C 17,2 C 15,6 C 89 % 1016,5 hPa 0,0 l/m 0 min 0 min 260 W/m 6,4 km/h (2 Bft) 95,74 %
10.08.2021 16:22 18,9 C 17,8 C 15,6 C 90 % 1016,5 hPa 0,0 l/m 0 min 0 min 243 W/m 12,9 km/h (3 Bft) 97,87 %
10.08.2021 16:24 18,9 C 17,8 C 15,6 C 90 % 1016,5 hPa 0,0 l/m 0 min 0 min 246 W/m 9,7 km/h (2 Bft) 97,83 %
10.08.2021 16:26 18,9 C 18,3 C 15,6 C 90 % 1016,6 hPa 0,0 l/m 0 min 0 min 260 W/m 6,4 km/h (2 Bft) 93,62 %
10.08.2021 16:28 18,9 C 18,3 C 16,1 C 90 % 1016,5 hPa 0,0 l/m 0 min 0 min 289 W/m 6,4 km/h (2 Bft) 95,74 %
10.08.2021 16:30 19,0 C 20,0 C 16,1 C 91 % 1016,5 hPa 0,0 l/m 0 min 0 min 313 W/m 9,7 km/h (2 Bft) 100,00 %
10.08.2021 16:32 19,0 C 20,0 C 16,1 C 91 % 1016,5 hPa 0,0 l/m 2 min 0 min 376 W/m 6,4 km/h (2 Bft) 95,74 %
10.08.2021 16:34 19,1 C 20,6 C 16,1 C 91 % 1016,5 hPa 0,0 l/m 2 min 0 min 349 W/m 12,9 km/h (3 Bft) 97,87 %
10.08.2021 16:36 19,1 C 20,0 C 16,1 C 91 % 1016,5 hPa 0,0 l/m 0 min 0 min 222 W/m 12,9 km/h (3 Bft) 95,74 %
10.08.2021 16:38 19,2 C 19,4 C 16,1 C 91 % 1016,5 hPa 0,0 l/m 0 min 0 min 163 W/m 6,4 km/h (2 Bft) 97,83 %
10.08.2021 16:40 19,1 C 19,4 C 16,1 C 91 % 1016,5 hPa 0,0 l/m 0 min 0 min 155 W/m 6,4 km/h (2 Bft) 97,87 %
10.08.2021 16:42 19,2 C 18,9 C 16,1 C 91 % 1016,5 hPa 0,0 l/m 0 min 0 min 175 W/m 6,4 km/h (2 Bft) 97,87 %
10.08.2021 16:44 19,2 C 19,4 C 16,1 C 91 % 1016,5 hPa 0,0 l/m 0 min 0 min 222 W/m 6,4 km/h (2 Bft) 100,00 %
10.08.2021 16:46 19,2 C 19,4 C 16,7 C 91 % 1016,5 hPa 0,0 l/m 0 min 0 min 270 W/m 6,4 km/h (2 Bft) 93,62 %
10.08.2021 16:48 19,3 C 19,4 C 16,7 C 91 % 1016,5 hPa 0,0 l/m 0 min 0 min 284 W/m 6,4 km/h (2 Bft) 97,83 %
10.08.2021 16:50 19,4 C 19,4 C 16,7 C 91 % 1016,4 hPa 0,0 l/m 0 min 0 min 255 W/m 6,4 km/h (2 Bft) 97,87 %
10.08.2021 16:52 19,4 C 20,0 C 16,7 C 91 % 1016,4 hPa 0,0 l/m 0 min 0 min 280 W/m 9,7 km/h (2 Bft) 100,00 %
10.08.2021 16:54 19,5 C 21,1 C 17,3 C 91 % 1016,4 hPa 0,0 l/m 2 min 0 min 377 W/m 6,4 km/h (2 Bft) 100,00 %
10.08.2021 16:56 19,5 C 21,7 C 17,3 C 91 % 1016,4 hPa 0,0 l/m 2 min 0 min 440 W/m 6,4 km/h (2 Bft) 97,87 %
10.08.2021 16:58 19,7 C 22,2 C 17,3 C 92 % 1016,4 hPa 0,0 l/m 2 min 0 min 458 W/m 6,4 km/h (2 Bft) 100,00 %
10.08.2021 17:00 19,9 C 23,3 C 17,8 C 92 % 1016,4 hPa 0,0 l/m 2 min 0 min 521 W/m 6,4 km/h (2 Bft) 97,83 %
10.08.2021 17:02 19,9 C 23,3 C 17,8 C 92 % 1016,4 hPa 0,0 l/m 2 min 0 min 474 W/m 9,7 km/h (2 Bft) 97,87 %
10.08.2021 17:04 20,0 C 23,9 C 17,8 C 91 % 1016,4 hPa 0,0 l/m 2 min 0 min 403 W/m 9,7 km/h (2 Bft) 95,74 %
10.08.2021 17:06 20,1 C 24,4 C 17,8 C 91 % 1016,4 hPa 0,0 l/m 2 min 0 min 525 W/m 6,4 km/h (2 Bft) 95,74 %
10.08.2021 17:08 20,1 C 23,9 C 18,4 C 91 % 1016,3 hPa 0,0 l/m 2 min 0 min 533 W/m 16,1 km/h (3 Bft) 95,74 %
10.08.2021 17:10 20,1 C 22,8 C 17,8 C 88 % 1016,4 hPa 0,0 l/m 2 min 0 min 316 W/m 12,9 km/h (3 Bft) 95,74 %
10.08.2021 17:12 20,2 C 22,2 C 17,8 C 87 % 1016,4 hPa 0,0 l/m 0 min 0 min 218 W/m 12,9 km/h (3 Bft) 97,83 %
10.08.2021 17:14 20,3 C 21,7 C 17,8 C 87 % 1016,5 hPa 0,0 l/m 0 min 0 min 219 W/m 16,1 km/h (3 Bft) 95,74 %
10.08.2021 17:16 20,3 C 21,7 C 17,8 C 86 % 1016,4 hPa 0,0 l/m 2 min 0 min 282 W/m 12,9 km/h (3 Bft) 95,74 %
10.08.2021 17:18 20,3 C 21,7 C 18,4 C 86 % 1016,4 hPa 0,0 l/m 2 min 0 min 312 W/m 6,4 km/h (2 Bft) 95,74 %
10.08.2021 17:20 20,4 C 21,7 C 18,4 C 86 % 1016,4 hPa 0,0 l/m 2 min 0 min 328 W/m 6,4 km/h (2 Bft) 95,35 %
10.08.2021 17:22 20,4 C 21,7 C 18,4 C 86 % 1016,4 hPa 0,0 l/m 2 min 0 min 329 W/m 9,7 km/h (2 Bft) 96,00 %
10.08.2021 17:24 20,4 C 21,7 C 18,4 C 86 % 1016,4 hPa 0,0 l/m 2 min 0 min 293 W/m 6,4 km/h (2 Bft) 95,65 %
10.08.2021 17:26 20,5 C 21,1 C 18,4 C 85 % 1016,4 hPa 0,0 l/m 2 min 0 min 274 W/m 12,9 km/h (3 Bft) 93,75 %
10.08.2021 17:28 20,5 C 20,6 C 18,4 C 85 % 1016,4 hPa 0,0 l/m 0 min 0 min 205 W/m 6,4 km/h (2 Bft) 97,87 %
10.08.2021 17:30 20,4 C 20,6 C 18,4 C 84 % 1016,5 hPa 0,0 l/m 0 min 0 min 160 W/m 16,1 km/h (3 Bft) 95,35 %
10.08.2021 17:32 20,4 C 20,0 C 18,4 C 83 % 1016,5 hPa 0,0 l/m 0 min 0 min 146 W/m 12,9 km/h (3 Bft) 95,74 %
10.08.2021 17:34 20,4 C 20,0 C 18,4 C 84 % 1016,5 hPa 0,0 l/m 0 min 0 min 146 W/m 9,7 km/h (2 Bft) 93,62 %
10.08.2021 17:36 20,3 C 20,0 C 18,4 C 83 % 1016,5 hPa 0,0 l/m 0 min 0 min 134 W/m 16,1 km/h (3 Bft) 95,65 %
10.08.2021 17:38 20,3 C 20,0 C 17,8 C 83 % 1016,6 hPa 0,0 l/m 0 min 0 min 125 W/m 16,1 km/h (3 Bft) 93,62 %
10.08.2021 17:40 20,2 C 19,4 C 17,8 C 83 % 1016,5 hPa 0,0 l/m 0 min 0 min 115 W/m 12,9 km/h (3 Bft) 95,74 %
10.08.2021 17:42 20,1 C 19,4 C 17,8 C 82 % 1016,6 hPa 0,0 l/m 0 min 0 min 127 W/m 12,9 km/h (3 Bft) 95,74 %
10.08.2021 17:44 20,1 C 19,4 C 17,8 C 83 % 1016,5 hPa 0,0 l/m 0 min 0 min 142 W/m 12,9 km/h (3 Bft) 97,87 %
10.08.2021 17:46 20,0 C 19,4 C 17,8 C 83 % 1016,5 hPa 0,0 l/m 0 min 0 min 137 W/m 6,4 km/h (2 Bft) 93,62 %
10.08.2021 17:48 20,0 C 19,4 C 17,8 C 83 % 1016,5 hPa 0,0 l/m 0 min 0 min 134 W/m 9,7 km/h (2 Bft) 93,48 %
10.08.2021 17:50 20,0 C 19,4 C 17,8 C 83 % 1016,5 hPa 0,0 l/m 0 min 0 min 127 W/m 6,4 km/h (2 Bft) 95,74 %
10.08.2021 17:52 20,0 C 19,4 C 17,8 C 83 % 1016,5 hPa 0,0 l/m 0 min 0 min 121 W/m 12,9 km/h (3 Bft) 93,62 %
10.08.2021 17:54 20,0 C 19,4 C 17,8 C 83 % 1016,5 hPa 0,0 l/m 0 min 0 min 117 W/m 9,7 km/h (2 Bft) 95,74 %
10.08.2021 17:56 20,0 C 19,4 C 17,8 C 84 % 1016,5 hPa 0,0 l/m 0 min 0 min 121 W/m 6,4 km/h (2 Bft) 95,74 %
10.08.2021 17:58 20,0 C 19,4 C 17,8 C 84 % 1016,5 hPa 0,0 l/m 0 min 0 min 138 W/m 12,9 km/h (3 Bft) 100,00 %
10.08.2021 18:00 20,0 C 20,0 C 17,8 C 84 % 1016,5 hPa 0,0 l/m 0 min 0 min 160 W/m 12,9 km/h (3 Bft) 100,00 %
10.08.2021 18:02 20,0 C 20,0 C 17,8 C 84 % 1016,5 hPa 0,0 l/m 0 min 0 min 170 W/m 16,1 km/h (3 Bft) 100,00 %
10.08.2021 18:04 20,0 C 20,0 C 17,8 C 85 % 1016,5 hPa 0,0 l/m 0 min 0 min 177 W/m 16,1 km/h (3 Bft) 97,87 %
10.08.2021 18:06 20,0 C 20,0 C 17,8 C 85 % 1016,6 hPa 0,0 l/m 0 min 0 min 192 W/m 16,1 km/h (3 Bft) 100,00 %
10.08.2021 18:08 20,0 C 20,0 C 17,8 C 84 % 1016,5 hPa 0,0 l/m 0 min 0 min 192 W/m 25,7 km/h (4 Bft) 100,00 %
10.08.2021 18:10 19,9 C 20,0 C 17,8 C 84 % 1016,5 hPa 0,0 l/m 0 min 0 min 191 W/m 16,1 km/h (3 Bft) 100,00 %
10.08.2021 18:12 19,9 C 20,0 C 17,8 C 84 % 1016,5 hPa 0,0 l/m 0 min 0 min 197 W/m 12,9 km/h (3 Bft) 100,00 %
10.08.2021 18:14 19,9 C 20,0 C 17,8 C 84 % 1016,5 hPa 0,0 l/m 0 min 0 min 178 W/m 12,9 km/h (3 Bft) 97,87 %
10.08.2021 18:16 19,8 C 19,4 C 17,8 C 84 % 1016,4 hPa 0,0 l/m 0 min 0 min 166 W/m 16,1 km/h (3 Bft) 97,87 %
10.08.2021 18:18 19,8 C 19,4 C 17,8 C 85 % 1016,4 hPa 0,0 l/m 0 min 0 min 157 W/m 9,7 km/h (2 Bft) 100,00 %
10.08.2021 18:20 19,8 C 19,4 C 17,8 C 85 % 1016,4 hPa 0,0 l/m 0 min 0 min 147 W/m 12,9 km/h (3 Bft) 97,87 %
10.08.2021 18:22 19,8 C 19,4 C 17,8 C 85 % 1016,4 hPa 0,0 l/m 0 min 0 min 151 W/m 16,1 km/h (3 Bft) 100,00 %
10.08.2021 18:24 19,8 C 19,4 C 17,8 C 85 % 1016,5 hPa 0,0 l/m 0 min 0 min 154 W/m 9,7 km/h (2 Bft) 97,87 %
10.08.2021 18:26 19,8 C 19,4 C 17,8 C 85 % 1016,5 hPa 0,0 l/m 0 min 0 min 145 W/m 19,3 km/h (3 Bft) 100,00 %
10.08.2021 18:28 19,8 C 19,4 C 17,8 C 85 % 1016,5 hPa 0,0 l/m 0 min 0 min 141 W/m 22,5 km/h (4 Bft) 100,00 %
10.08.2021 18:30 19,7 C 19,4 C 17,8 C 85 % 1016,5 hPa 0,0 l/m 0 min 0 min 139 W/m 22,5 km/h (4 Bft) 97,87 %
10.08.2021 18:32 19,6 C 18,9 C 17,8 C 85 % 1016,5 hPa 0,0 l/m 0 min 0 min 138 W/m 16,1 km/h (3 Bft) 91,67 %
10.08.2021 18:34 19,6 C 18,9 C 17,8 C 86 % 1016,6 hPa 0,0 l/m 0 min 0 min 141 W/m 12,9 km/h (3 Bft) 97,83 %
10.08.2021 18:36 19,6 C 18,9 C 17,8 C 86 % 1016,5 hPa 0,0 l/m 0 min 0 min 141 W/m 12,9 km/h (3 Bft) 97,87 %
10.08.2021 18:38 19,5 C 18,9 C 17,3 C 86 % 1016,6 hPa 0,0 l/m 0 min 0 min 128 W/m 19,3 km/h (3 Bft) 97,87 %
10.08.2021 18:40 19,5 C 18,9 C 17,3 C 86 % 1016,6 hPa 0,0 l/m 0 min 2 min 115 W/m 16,1 km/h (3 Bft) 97,87 %
10.08.2021 18:42 19,5 C 18,9 C 17,3 C 86 % 1016,6 hPa 0,0 l/m 0 min 2 min 107 W/m 16,1 km/h (3 Bft) 97,87 %
10.08.2021 18:44 19,4 C 18,9 C 17,3 C 86 % 1016,6 hPa 0,0 l/m 0 min 0 min 105 W/m 12,9 km/h (3 Bft) 95,74 %
10.08.2021 18:46 19,4 C 18,9 C 17,3 C 86 % 1016,6 hPa 0,0 l/m 0 min 2 min 105 W/m 12,9 km/h (3 Bft) 95,65 %
10.08.2021 18:48 19,3 C 18,9 C 17,3 C 86 % 1016,6 hPa 0,0 l/m 0 min 2 min 109 W/m 12,9 km/h (3 Bft) 97,87 %
10.08.2021 18:50 19,3 C 18,9 C 17,3 C 86 % 1016,6 hPa 0,0 l/m 0 min 2 min 111 W/m 6,4 km/h (2 Bft) 95,74 %
10.08.2021 18:52 19,3 C 18,9 C 17,3 C 86 % 1016,6 hPa 0,0 l/m 0 min 2 min 113 W/m 9,7 km/h (2 Bft) 97,87 %
10.08.2021 18:54 19,3 C 18,9 C 16,7 C 86 % 1016,6 hPa 0,0 l/m 0 min 2 min 111 W/m 16,1 km/h (3 Bft) 95,74 %
10.08.2021 18:56 19,3 C 18,9 C 16,7 C 86 % 1016,6 hPa 0,0 l/m 0 min 2 min 105 W/m 6,4 km/h (2 Bft) 97,87 %
10.08.2021 18:58 19,3 C 18,9 C 16,7 C 86 % 1016,6 hPa 0,0 l/m 0 min 0 min 108 W/m 9,7 km/h (2 Bft) 97,83 %
10.08.2021 19:00 19,3 C 18,9 C 16,7 C 86 % 1016,7 hPa 0,0 l/m 0 min 0 min 121 W/m 9,7 km/h (2 Bft) 97,87 %
10.08.2021 19:02 19,2 C 18,9 C 16,7 C 86 % 1016,7 hPa 0,2 l/m 0 min 0 min 129 W/m 9,7 km/h (2 Bft) 97,92 %
10.08.2021 19:04 19,2 C 18,9 C 16,7 C 86 % 1016,7 hPa 0,0 l/m 0 min 0 min 111 W/m 9,7 km/h (2 Bft) 95,74 %
10.08.2021 19:06 19,1 C 18,9 C 16,7 C 86 % 1016,7 hPa 0,0 l/m 0 min 0 min 90 W/m 12,9 km/h (3 Bft) 95,74 %
10.08.2021 19:08 19,1 C 18,9 C 16,7 C 86 % 1016,7 hPa 0,0 l/m 0 min 0 min 75 W/m 3,2 km/h (1 Bft) 95,74 %
10.08.2021 19:10 19,1 C 18,9 C 16,7 C 86 % 1016,7 hPa 0,0 l/m 0 min 0 min 67 W/m 6,4 km/h (2 Bft) 95,65 %
10.08.2021 19:12 19,1 C 18,9 C 16,7 C 87 % 1016,6 hPa 0,0 l/m 0 min 0 min 68 W/m 3,2 km/h (1 Bft) 95,74 %
10.08.2021 19:14 19,1 C 18,9 C 16,7 C 87 % 1016,6 hPa 0,0 l/m 0 min 0 min 74 W/m 6,4 km/h (2 Bft) 97,87 %
10.08.2021 19:16 19,1 C 18,9 C 16,7 C 86 % 1016,7 hPa 0,0 l/m 0 min 0 min 83 W/m 6,4 km/h (2 Bft) 97,87 %
10.08.2021 19:18 19,0 C 18,9 C 16,7 C 86 % 1016,6 hPa 0,0 l/m 0 min 0 min 84 W/m 3,2 km/h (1 Bft) 95,74 %
10.08.2021 19:20 19,0 C 18,9 C 16,7 C 86 % 1016,7 hPa 0,0 l/m 0 min 0 min 87 W/m 3,2 km/h (1 Bft) 97,87 %
10.08.2021 19:22 19,0 C 18,9 C 16,7 C 86 % 1016,6 hPa 0,0 l/m 0 min 0 min 89 W/m 3,2 km/h (1 Bft) 97,83 %
10.08.2021 19:24 19,1 C 18,9 C 16,7 C 87 % 1016,6 hPa 0,0 l/m 0 min 0 min 81 W/m 0,0 km/h (0 Bft) 97,87 %
10.08.2021 19:26 19,1 C 18,9 C 16,7 C 87 % 1016,7 hPa 0,0 l/m 0 min 0 min 75 W/m 0,0 km/h (0 Bft) 95,74 %
10.08.2021 19:28 19,1 C 18,9 C 16,7 C 87 % 1016,6 hPa 0,0 l/m 0 min 0 min 78 W/m 3,2 km/h (1 Bft) 97,87 %
10.08.2021 19:30 19,0 C 18,9 C 16,7 C 86 % 1016,6 hPa 0,0 l/m 0 min 0 min 77 W/m 3,2 km/h (1 Bft) 97,87 %
10.08.2021 19:32 19,0 C 18,9 C 16,7 C 86 % 1016,6 hPa 0,0 l/m 0 min 2 min 75 W/m 3,2 km/h (1 Bft) 95,65 %
10.08.2021 19:34 19,0 C 18,9 C 16,7 C 86 % 1016,6 hPa 0,0 l/m 0 min 0 min 83 W/m 3,2 km/h (1 Bft) 95,74 %
10.08.2021 19:36 19,0 C 18,9 C 16,7 C 86 % 1016,6 hPa 0,0 l/m 0 min 0 min 87 W/m 3,2 km/h (1 Bft) 97,87 %
10.08.2021 19:38 19,0 C 18,9 C 16,7 C 86 % 1016,7 hPa 0,0 l/m 0 min 0 min 83 W/m 6,4 km/h (2 Bft) 97,87 %
10.08.2021 19:40 19,0 C 18,9 C 16,7 C 86 % 1016,7 hPa 0,0 l/m 0 min 0 min 87 W/m 0,0 km/h (0 Bft) 95,74 %
10.08.2021 19:42 19,0 C 18,9 C 17,3 C 86 % 1016,7 hPa 0,0 l/m 0 min 0 min 90 W/m 3,2 km/h (1 Bft) 95,74 %
10.08.2021 19:44 19,0 C 18,9 C 17,3 C 86 % 1016,7 hPa 0,0 l/m 0 min 0 min 91 W/m 3,2 km/h (1 Bft) 97,83 %
10.08.2021 19:46 19,1 C 18,9 C 17,3 C 86 % 1016,7 hPa 0,0 l/m 2 min 0 min 99 W/m 3,2 km/h (1 Bft) 97,87 %
10.08.2021 19:48 19,1 C 18,9 C 17,3 C 87 % 1016,7 hPa 0,0 l/m 2 min 0 min 99 W/m 3,2 km/h (1 Bft) 100,00 %
10.08.2021 19:50 19,2 C 18,9 C 17,3 C 87 % 1016,7 hPa 0,0 l/m 2 min 0 min 89 W/m 0,0 km/h (0 Bft) 95,74 %
10.08.2021 19:52 19,2 C 18,9 C 17,3 C 87 % 1016,8 hPa 0,0 l/m 2 min 0 min 85 W/m 0,0 km/h (0 Bft) 97,87 %
10.08.2021 19:54 19,3 C 18,9 C 17,3 C 87 % 1016,7 hPa 0,0 l/m 2 min 0 min 87 W/m 6,4 km/h (2 Bft) 97,87 %
10.08.2021 19:56 19,3 C 18,9 C 17,3 C 87 % 1016,8 hPa 0,0 l/m 2 min 0 min 88 W/m 3,2 km/h (1 Bft) 95,65 %
10.08.2021 19:58 19,3 C 18,9 C 17,3 C 87 % 1016,8 hPa 0,0 l/m 2 min 0 min 78 W/m 3,2 km/h (1 Bft) 97,87 %
10.08.2021 20:00 19,3 C 18,9 C 17,3 C 86 % 1016,8 hPa 0,0 l/m 0 min 0 min 68 W/m 3,2 km/h (1 Bft) 95,74 %
10.08.2021 20:02 19,3 C 18,9 C 17,3 C 86 % 1016,8 hPa 0,0 l/m 0 min 0 min 58 W/m 3,2 km/h (1 Bft) 95,74 %
10.08.2021 20:04 19,3 C 18,9 C 17,3 C 86 % 1016,8 hPa 0,0 l/m 0 min 0 min 53 W/m 3,2 km/h (1 Bft) 97,87 %
10.08.2021 20:06 19,3 C 18,9 C 17,3 C 86 % 1016,8 hPa 0,0 l/m 0 min 0 min 51 W/m 3,2 km/h (1 Bft) 97,87 %
10.08.2021 20:08 19,3 C 18,9 C 16,7 C 86 % 1016,8 hPa 0,0 l/m 0 min 0 min 52 W/m 0,0 km/h (0 Bft) 95,74 %
10.08.2021 20:10 19,3 C 18,9 C 16,7 C 86 % 1016,8 hPa 0,0 l/m 0 min 0 min 54 W/m 0,0 km/h (0 Bft) 97,83 %
10.08.2021 20:12 19,3 C 18,9 C 16,7 C 86 % 1016,8 hPa 0,0 l/m 2 min 0 min 60 W/m 3,2 km/h (1 Bft) 97,87 %
10.08.2021 20:14 19,3 C 18,9 C 16,7 C 86 % 1016,7 hPa 0,0 l/m 2 min 0 min 63 W/m 3,2 km/h (1 Bft) 97,87 %
10.08.2021 20:16 19,3 C 18,9 C 16,7 C 86 % 1016,8 hPa 0,0 l/m 0 min 0 min 52 W/m 3,2 km/h (1 Bft) 97,87 %
10.08.2021 20:18 19,3 C 18,9 C 17,3 C 86 % 1016,8 hPa 0,0 l/m 0 min 0 min 44 W/m 6,4 km/h (2 Bft) 97,87 %
10.08.2021 20:20 19,3 C 18,9 C 16,7 C 86 % 1016,8 hPa 0,0 l/m 0 min 0 min 41 W/m 3,2 km/h (1 Bft) 95,65 %
10.08.2021 20:22 19,2 C 18,3 C 16,7 C 86 % 1016,8 hPa 0,0 l/m 0 min 0 min 44 W/m 6,4 km/h (2 Bft) 97,87 %
10.08.2021 20:24 19,2 C 18,3 C 16,7 C 86 % 1016,9 hPa 0,0 l/m 2 min 0 min 54 W/m 6,4 km/h (2 Bft) 97,87 %
10.08.2021 20:26 19,2 C 18,3 C 16,7 C 85 % 1016,9 hPa 0,0 l/m 2 min 0 min 57 W/m 3,2 km/h (1 Bft) 97,87 %
10.08.2021 20:28 19,1 C 18,3 C 16,7 C 85 % 1016,9 hPa 0,0 l/m 2 min 0 min 47 W/m 6,4 km/h (2 Bft) 97,87 %
10.08.2021 20:30 19,1 C 18,3 C 17,3 C 85 % 1016,9 hPa 0,0 l/m 2 min 0 min 39 W/m 3,2 km/h (1 Bft) 97,87 %
10.08.2021 20:32 19,1 C 18,3 C 16,7 C 85 % 1016,9 hPa 0,0 l/m 0 min 0 min 27 W/m 3,2 km/h (1 Bft) 97,83 %
10.08.2021 20:34 19,1 C 18,3 C 16,7 C 85 % 1016,9 hPa 0,0 l/m 0 min 0 min 22 W/m 0,0 km/h (0 Bft) 97,87 %
10.08.2021 20:36 19,1 C 18,3 C 16,7 C 85 % 1017,0 hPa 0,0 l/m 0 min 0 min 19 W/m 0,0 km/h (0 Bft) 97,87 %
10.08.2021 20:38 19,1 C 18,3 C 16,7 C 86 % 1017,0 hPa 0,0 l/m 0 min 0 min 19 W/m 0,0 km/h (0 Bft) 100,00 %
10.08.2021 20:40 19,1 C 18,3 C 16,7 C 86 % 1017,0 hPa 0,0 l/m 0 min 0 min 19 W/m 3,2 km/h (1 Bft) 100,00 %
10.08.2021 20:42 19,1 C 17,8 C 16,7 C 86 % 1017,1 hPa 0,0 l/m 0 min 0 min 19 W/m 0,0 km/h (0 Bft) 100,00 %
10.08.2021 20:44 19,0 C 17,8 C 16,7 C 86 % 1017,1 hPa 0,0 l/m 0 min 0 min 19 W/m 0,0 km/h (0 Bft) 100,00 %
10.08.2021 20:46 19,0 C 17,8 C 16,1 C 86 % 1017,1 hPa 0,0 l/m 0 min 0 min 18 W/m 3,2 km/h (1 Bft) 97,87 %
10.08.2021 20:48 19,0 C 17,8 C 16,1 C 86 % 1017,1 hPa 0,0 l/m 0 min 0 min 16 W/m 0,0 km/h (0 Bft) 100,00 %
10.08.2021 20:50 18,9 C 17,8 C 16,1 C 86 % 1017,1 hPa 0,0 l/m 0 min 0 min 15 W/m 3,2 km/h (1 Bft) 100,00 %
10.08.2021 20:52 18,9 C 17,8 C 16,1 C 86 % 1017,1 hPa 0,0 l/m 0 min 0 min 13 W/m 0,0 km/h (0 Bft) 97,87 %
10.08.2021 20:54 18,9 C 17,8 C 16,1 C 87 % 1017,0 hPa 0,0 l/m 0 min 0 min 12 W/m 3,2 km/h (1 Bft) 100,00 %
10.08.2021 20:56 18,8 C 17,2 C 16,1 C 87 % 1017,0 hPa 0,0 l/m 0 min 0 min 11 W/m 0,0 km/h (0 Bft) 97,83 %
10.08.2021 20:58 18,8 C 17,2 C 16,1 C 87 % 1017,1 hPa 0,0 l/m 0 min 0 min 10 W/m 0,0 km/h (0 Bft) 100,00 %
10.08.2021 21:00 18,8 C 17,2 C 16,1 C 87 % 1017,1 hPa 0,0 l/m 0 min 0 min 7 W/m 0,0 km/h (0 Bft) 100,00 %
10.08.2021 21:02 18,7 C 17,2 C 16,1 C 87 % 1017,1 hPa 0,0 l/m 0 min 0 min 6 W/m 3,2 km/h (1 Bft) 100,00 %
10.08.2021 21:04 18,6 C 17,2 C 15,6 C 87 % 1017,1 hPa 0,0 l/m 0 min 0 min 5 W/m 6,4 km/h (2 Bft) 95,74 %
10.08.2021 21:06 18,6 C 17,2 C 16,1 C 87 % 1017,2 hPa 0,0 l/m 0 min 0 min 5 W/m 6,4 km/h (2 Bft) 97,87 %
10.08.2021 21:08 18,5 C 17,2 C 16,1 C 87 % 1017,2 hPa 0,0 l/m 0 min 0 min 0 W/m 3,2 km/h (1 Bft) 95,65 %
10.08.2021 21:10 18,5 C 17,2 C 15,6 C 87 % 1017,2 hPa 0,0 l/m 0 min 0 min 0 W/m 3,2 km/h (1 Bft) 97,87 %
10.08.2021 21:12 18,5 C 17,2 C 15,6 C 88 % 1017,1 hPa 0,0 l/m 0 min 0 min 0 W/m 3,2 km/h (1 Bft) 97,87 %
10.08.2021 21:14 18,4 C 17,2 C 15,6 C 88 % 1017,1 hPa 0,0 l/m 0 min 0 min 0 W/m 3,2 km/h (1 Bft) 97,87 %
10.08.2021 21:16 18,4 C 17,2 C 15,6 C 88 % 1017,1 hPa 0,0 l/m 0 min 0 min 0 W/m 6,4 km/h (2 Bft) 95,74 %
10.08.2021 21:18 18,3 C 17,2 C 15,6 C 88 % 1017,2 hPa 0,0 l/m 0 min 0 min 0 W/m 3,2 km/h (1 Bft) 93,62 %
10.08.2021 21:20 18,3 C 16,7 C 15,6 C 88 % 1017,2 hPa 0,0 l/m 0 min 0 min 0 W/m 0,0 km/h (0 Bft) 93,48 %
10.08.2021 21:22 18,3 C 16,7 C 15,6 C 88 % 1017,3 hPa 0,0 l/m 0 min 0 min 0 W/m 0,0 km/h (0 Bft) 93,62 %
10.08.2021 21:24 18,2 C 16,7 C 15,6 C 88 % 1017,3 hPa 0,0 l/m 0 min 0 min 0 W/m 3,2 km/h (1 Bft) 95,74 %
10.08.2021 21:26 18,1 C 16,7 C 15,6 C 88 % 1017,4 hPa 0,0 l/m 0 min 0 min 0 W/m 3,2 km/h (1 Bft) 91,49 %
10.08.2021 21:28 18,1 C 16,7 C 15,6 C 88 % 1017,3 hPa 0,0 l/m 0 min 0 min 0 W/m 0,0 km/h (0 Bft) 95,74 %
10.08.2021 21:30 18,0 C 16,7 C 15,6 C 89 % 1017,3 hPa 0,0 l/m 0 min 0 min 0 W/m 0,0 km/h (0 Bft) 95,65 %
10.08.2021 21:32 18,0 C 16,7 C 15,6 C 89 % 1017,4 hPa 0,0 l/m 0 min 0 min 0 W/m 3,2 km/h (1 Bft) 95,74 %
10.08.2021 21:34 18,0 C 16,7 C 15,6 C 89 % 1017,3 hPa 0,0 l/m 0 min 0 min 0 W/m 3,2 km/h (1 Bft) 97,87 %
10.08.2021 21:36 17,9 C 16,7 C 15,6 C 89 % 1017,3 hPa 0,0 l/m 0 min 0 min 0 W/m 3,2 km/h (1 Bft) 97,87 %
10.08.2021 21:38 17,9 C 16,7 C 15,6 C 89 % 1017,4 hPa 0,0 l/m 0 min 0 min 0 W/m 3,2 km/h (1 Bft) 97,87 %
10.08.2021 21:40 17,9 C 16,7 C 15,6 C 89 % 1017,3 hPa 0,0 l/m 0 min 0 min 0 W/m 3,2 km/h (1 Bft) 97,87 %
10.08.2021 21:42 17,8 C 16,7 C 15,6 C 89 % 1017,3 hPa 0,0 l/m 0 min 0 min 0 W/m 0,0 km/h (0 Bft) 97,87 %
10.08.2021 21:44 17,8 C 16,7 C 15,6 C 89 % 1017,4 hPa 0,0 l/m 0 min 0 min 0 W/m 3,2 km/h (1 Bft) 95,65 %
10.08.2021 21:46 17,8 C 16,7 C 15,6 C 89 % 1017,4 hPa 0,0 l/m 0 min 0 min 0 W/m 3,2 km/h (1 Bft) 95,74 %
10.08.2021 21:48 17,8 C 16,7 C 15,0 C 90 % 1017,4 hPa 0,0 l/m 0 min 0 min 0 W/m 3,2 km/h (1 Bft) 95,74 %
10.08.2021 21:50 17,7 C 16,7 C 15,0 C 90 % 1017,5 hPa 0,0 l/m 0 min 0 min 0 W/m 0,0 km/h (0 Bft) 96,81 %
10.08.2021 21:52 17,6 C 16,1 C 15,0 C 90 % 1017,5 hPa 0,0 l/m 0 min 0 min 0 W/m 0,0 km/h (0 Bft) 98,39 %
10.08.2021 21:54 17,6 C 16,1 C 15,0 C 90 % 1017,6 hPa 0,0 l/m 0 min 0 min 0 W/m 3,2 km/h (1 Bft) 97,87 %
10.08.2021 21:56 17,6 C 16,1 C 15,0 C 90 % 1017,6 hPa 0,0 l/m 0 min 0 min 0 W/m 0,0 km/h (0 Bft) 95,65 %
10.08.2021 21:58 17,6 C 16,1 C 15,0 C 90 % 1017,7 hPa 0,0 l/m 0 min 0 min 0 W/m 0,0 km/h (0 Bft) 97,87 %
10.08.2021 22:00 17,5 C 16,1 C 15,0 C 90 % 1017,7 hPa 0,0 l/m 0 min 0 min 0 W/m 0,0 km/h (0 Bft) 95,74 %
10.08.2021 22:02 17,5 C 16,1 C 15,0 C 90 % 1017,8 hPa 0,0 l/m 0 min 0 min 0 W/m 0,0 km/h (0 Bft) 97,87 %
10.08.2021 22:04 17,5 C 16,1 C 15,0 C 90 % 1017,8 hPa 0,0 l/m 0 min 0 min 0 W/m 0,0 km/h (0 Bft) 97,87 %
10.08.2021 22:06 17,5 C 15,6 C 15,0 C 90 % 1017,8 hPa 0,0 l/m 0 min 0 min 0 W/m 0,0 km/h (0 Bft) 97,87 %
10.08.2021 22:08 17,4 C 15,6 C 14,5 C 90 % 1017,8 hPa 0,0 l/m 0 min 0 min 0 W/m 0,0 km/h (0 Bft) 97,83 %
10.08.2021 22:10 17,4 C 15,6 C 14,5 C 90 % 1017,9 hPa 0,0 l/m 0 min 0 min 0 W/m 0,0 km/h (0 Bft) 97,87 %
10.08.2021 22:12 17,4 C 15,6 C 15,0 C 90 % 1017,8 hPa 0,0 l/m 0 min 0 min 0 W/m 0,0 km/h (0 Bft) 100,00 %
10.08.2021 22:14 17,4 C 15,6 C 15,0 C 91 % 1017,8 hPa 0,0 l/m 0 min 0 min 0 W/m 0,0 km/h (0 Bft) 97,87 %
10.08.2021 22:16 17,4 C 15,6 C 15,0 C 91 % 1017,8 hPa 0,0 l/m 0 min 0 min 0 W/m 0,0 km/h (0 Bft) 100,00 %
10.08.2021 22:18 17,3 C 16,1 C 15,0 C 91 % 1017,8 hPa 0,0 l/m 0 min 0 min 0 W/m 0,0 km/h (0 Bft) 95,65 %
10.08.2021 22:20 17,3 C 16,1 C 15,0 C 91 % 1017,9 hPa 0,0 l/m 0 min 0 min 0 W/m 0,0 km/h (0 Bft) 100,00 %
10.08.2021 22:22 17,3 C 16,1 C 15,0 C 91 % 1017,9 hPa 0,0 l/m 0 min 0 min 0 W/m 0,0 km/h (0 Bft) 100,00 %
10.08.2021 22:24 17,3 C 16,1 C 15,0 C 91 % 1017,8 hPa 0,0 l/m 0 min 0 min 0 W/m 0,0 km/h (0 Bft) 100,00 %
10.08.2021 22:26 17,3 C 16,1 C 15,0 C 91 % 1017,9 hPa 0,0 l/m 0 min 0 min 0 W/m 0,0 km/h (0 Bft) 100,00 %
10.08.2021 22:28 17,3 C 16,1 C 15,0 C 91 % 1017,9 hPa 0,0 l/m 0 min 0 min 0 W/m 0,0 km/h (0 Bft) 97,87 %
10.08.2021 22:30 17,3 C 16,1 C 15,0 C 91 % 1017,9 hPa 0,0 l/m 0 min 0 min 0 W/m 0,0 km/h (0 Bft) 100,00 %
10.08.2021 22:32 17,3 C 16,1 C 15,0 C 91 % 1017,9 hPa 0,0 l/m 0 min 0 min 0 W/m 0,0 km/h (0 Bft) 100,00 %
10.08.2021 22:34 17,2 C 16,1 C 15,0 C 91 % 1018,0 hPa 0,0 l/m 0 min 0 min 0 W/m 0,0 km/h (0 Bft) 97,87 %
10.08.2021 22:36 17,2 C 16,1 C 15,0 C 91 % 1018,0 hPa 0,0 l/m 0 min 0 min 0 W/m 0,0 km/h (0 Bft) 93,48 %
10.08.2021 22:38 17,2 C 16,1 C 15,0 C 92 % 1018,0 hPa 0,0 l/m 0 min 0 min 0 W/m 0,0 km/h (0 Bft) 97,87 %
10.08.2021 22:40 17,2 C 16,1 C 15,0 C 92 % 1018,0 hPa 0,0 l/m 0 min 0 min 0 W/m 0,0 km/h (0 Bft) 97,87 %
10.08.2021 22:42 17,2 C 16,7 C 15,6 C 92 % 1017,9 hPa 0,0 l/m 0 min 0 min 0 W/m 3,2 km/h (1 Bft) 95,74 %
10.08.2021 22:44 17,2 C 16,7 C 15,6 C 92 % 1018,0 hPa 0,0 l/m 0 min 0 min 0 W/m 0,0 km/h (0 Bft) 95,74 %
10.08.2021 22:46 17,2 C 16,7 C 15,6 C 92 % 1018,0 hPa 0,0 l/m 0 min 0 min 0 W/m 0,0 km/h (0 Bft) 95,74 %
10.08.2021 22:48 17,2 C 16,7 C 15,6 C 92 % 1018,0 hPa 0,0 l/m 0 min 0 min 0 W/m 0,0 km/h (0 Bft) 97,87 %
10.08.2021 22:50 17,2 C 16,7 C 15,6 C 92 % 1018,0 hPa 0,0 l/m 0 min 0 min 0 W/m 3,2 km/h (1 Bft) 97,87 %
10.08.2021 22:52 17,3 C 16,7 C 15,6 C 92 % 1018,0 hPa 0,0 l/m 0 min 0 min 0 W/m 3,2 km/h (1 Bft) 97,87 %
10.08.2021 22:54 17,2 C 16,7 C 15,6 C 92 % 1018,0 hPa 0,0 l/m 0 min 0 min 0 W/m 3,2 km/h (1 Bft) 95,65 %
10.08.2021 22:56 17,2 C 16,7 C 15,6 C 92 % 1018,0 hPa 0,0 l/m 0 min 0 min 0 W/m 3,2 km/h (1 Bft) 95,74 %
10.08.2021 22:58 17,2 C 16,7 C 15,6 C 93 % 1018,1 hPa 0,0 l/m 0 min 0 min 0 W/m 3,2 km/h (1 Bft) 95,74 %
10.08.2021 23:00 17,3 C 16,7 C 15,6 C 93 % 1018,1 hPa 0,0 l/m 0 min 0 min 0 W/m 6,4 km/h (2 Bft) 95,74 %
10.08.2021 23:02 17,3 C 16,7 C 15,6 C 93 % 1018,1 hPa 0,0 l/m 0 min 0 min 0 W/m 3,2 km/h (1 Bft) 93,62 %
10.08.2021 23:04 17,3 C 16,7 C 15,6 C 93 % 1018,1 hPa 0,0 l/m 0 min 0 min 0 W/m 0,0 km/h (0 Bft) 95,74 %
10.08.2021 23:06 17,3 C 16,7 C 15,6 C 93 % 1018,1 hPa 0,0 l/m 0 min 0 min 0 W/m 3,2 km/h (1 Bft) 91,30 %
10.08.2021 23:08 17,3 C 16,7 C 15,6 C 93 % 1018,1 hPa 0,0 l/m 0 min 0 min 0 W/m 6,4 km/h (2 Bft) 95,74 %
10.08.2021 23:10 17,3 C 16,7 C 15,6 C 93 % 1018,1 hPa 0,0 l/m 0 min 0 min 0 W/m 3,2 km/h (1 Bft) 93,62 %
10.08.2021 23:12 17,3 C 16,7 C 15,6 C 93 % 1018,1 hPa 0,0 l/m 0 min 0 min 0 W/m 3,2 km/h (1 Bft) 93,62 %
10.08.2021 23:14 17,3 C 16,7 C 15,6 C 93 % 1018,1 hPa 0,0 l/m 0 min 0 min 0 W/m 3,2 km/h (1 Bft) 93,62 %
10.08.2021 23:16 17,3 C 16,7 C 15,6 C 93 % 1018,1 hPa 0,0 l/m 0 min 0 min 0 W/m 0,0 km/h (0 Bft) 93,62 %
10.08.2021 23:18 17,3 C 16,7 C 15,6 C 93 % 1018,1 hPa 0,0 l/m 0 min 0 min 0 W/m 3,2 km/h (1 Bft) 97,83 %
10.08.2021 23:20 17,3 C 16,7 C 15,6 C 93 % 1018,1 hPa 0,0 l/m 0 min 0 min 0 W/m 0,0 km/h (0 Bft) 97,87 %
10.08.2021 23:22 17,3 C 16,7 C 15,6 C 93 % 1018,1 hPa 0,0 l/m 0 min 0 min 0 W/m 0,0 km/h (0 Bft) 97,87 %
10.08.2021 23:24 17,3 C 16,7 C 15,6 C 93 % 1018,1 hPa 0,0 l/m 0 min 0 min 0 W/m 0,0 km/h (0 Bft) 97,78 %
10.08.2021 23:26 17,3 C 16,7 C 15,6 C 93 % 1018,1 hPa 0,0 l/m 0 min 0 min 0 W/m 0,0 km/h (0 Bft) 100,00 %
10.08.2021 23:28 17,3 C 16,7 C 15,6 C 93 % 1018,1 hPa 0,0 l/m 0 min 0 min 0 W/m 0,0 km/h (0 Bft) 100,00 %
10.08.2021 23:30 17,3 C 16,7 C 15,6 C 93 % 1018,2 hPa 0,0 l/m 0 min 0 min 0 W/m 0,0 km/h (0 Bft) 100,00 %
10.08.2021 23:32 17,3 C 16,7 C 15,6 C 93 % 1018,1 hPa 0,0 l/m 0 min 0 min 0 W/m 0,0 km/h (0 Bft) 100,00 %
10.08.2021 23:34 17,3 C 16,7 C 15,6 C 93 % 1018,1 hPa 0,0 l/m 0 min 0 min 0 W/m 0,0 km/h (0 Bft) 100,00 %
10.08.2021 23:36 17,3 C 16,7 C 15,6 C 93 % 1018,1 hPa 0,0 l/m 0 min 0 min 0 W/m 0,0 km/h (0 Bft) 100,00 %
10.08.2021 23:38 17,3 C 16,7 C 15,6 C 93 % 1018,1 hPa 0,0 l/m 0 min 0 min 0 W/m 0,0 km/h (0 Bft) 100,00 %
10.08.2021 23:40 17,3 C 16,7 C 15,6 C 93 % 1018,2 hPa 0,0 l/m 0 min 0 min 0 W/m 0,0 km/h (0 Bft) 100,00 %
10.08.2021 23:42 17,3 C 16,1 C 15,6 C 93 % 1018,2 hPa 0,0 l/m 0 min 0 min 0 W/m 0,0 km/h (0 Bft) 100,00 %
10.08.2021 23:44 17,3 C 16,1 C 15,6 C 93 % 1018,2 hPa 0,0 l/m 0 min 0 min 0 W/m 0,0 km/h (0 Bft) 100,00 %
10.08.2021 23:46 17,3 C 16,1 C 15,6 C 93 % 1018,1 hPa 0,0 l/m 0 min 0 min 0 W/m 0,0 km/h (0 Bft) 100,00 %
10.08.2021 23:48 17,3 C 16,1 C 15,6 C 93 % 1018,2 hPa 0,0 l/m 0 min 0 min 0 W/m 0,0 km/h (0 Bft) 100,00 %
10.08.2021 23:50 17,3 C 16,1 C 15,6 C 93 % 1018,2 hPa 0,0 l/m 0 min 0 min 0 W/m 3,2 km/h (1 Bft) 100,00 %
10.08.2021 23:52 17,3 C 16,1 C 15,6 C 93 % 1018,2 hPa 0,0 l/m 0 min 0 min 0 W/m 0,0 km/h (0 Bft) 97,83 %
10.08.2021 23:54 17,2 C 16,1 C 15,0 C 93 % 1018,2 hPa 0,0 l/m 0 min 0 min 0 W/m 3,2 km/h (1 Bft) 100,00 %
10.08.2021 23:56 17,2 C 16,1 C 15,0 C 93 % 1018,2 hPa 0,0 l/m 0 min 0 min 0 W/m 0,0 km/h (0 Bft) 100,00 %
10.08.2021 23:58 17,2 C 16,1 C 15,0 C 93 % 1018,2 hPa 0,0 l/m 0 min 0 min 0 W/m 3,2 km/h (1 Bft) 100,00 %
_ Min-Zeit 06:44 06:20 06:36 14:30 03:46 - - - - 00:02 00:02
Minimum _ 13,5 C 12,2 C 12,3 C 68 % 1016,1 hPa - - - - 0,0 km/h (0 Bft) 13,33 %
_ Max-Zeit 14:26 14:02 12:30 08:20 23:30 04:54 08:22 00:07 13:52 13:56 00:00
Maximum _ 23,0 C 26,1 C 23,9 C 98 % 1018,2 hPa 0,8 l/m 2 min 3 min 1121 W/m 29,0 km/h
SO (5 Bft)
100,00 %
Durchschnitt _ 17,3 C 17,1 C 15,8 C 91 % 1016,9 hPa #4,8 l/m #3:42 h #2:54 h 248 W/m 7,4 km/h (2 Bft) 96,98 %
© 2021 W. Hausmann